Dirección General De Aeronáutica Civil

Dirección Meteorológica de Chile - Servicios Climáticos

Informe General de Control de Calidad de la Estación

Listado de niveles de control de calidad para algunos parámetros
Estación Victoria Ad. (380901)
Fecha de Revisión de los datos :

Elementos

Registros Niveles de Control Total
Nivel 0 Nivel 1 Nivel 2 Nivel 3 Errores Porcentaje
01 Temperatura del Aire Seco 15.389 0 . 926 6.02 % 0 . 0 . 926 6.02 %
02 Temperatura de Rocío 10.333 1 0.01 % 0 . 0 . 0 . 1 0.01 %
03 Humedad Relativa del Aire 15.344 0 . 0 . 0 . 0 . 0 0.00 %
04 Temperatura Máxima PM 1.097 0 . 0 . 79 7.20 % 0 . 79 7.20 %
05 Temperatura Mínima AM 1.092 0 . 0 . 43 3.94 % 0 . 43 3.94 %
06 Viento a 10 m. de Altura 15.407 2 0.01 % 8 0.05 % 8 0.05 % 0 . 18 0.12 %
07 Agua Caida, Acumulada 6 Horas 2.188 0 . 1 0.05 % 0 . 0 . 1 0.05 %
08 Presión Atm. a Nivel Medio del Mar (QFF) 15.384 7 0.05 % 0 . 0 . 0 . 7 0.05 %
09 Tiempo Pasado Sinóptico 4.461 0 . 0 . 0 . 0 . 0 0.00 %
10 Tiempo Presente Sinóptico 15.407 0 . 8 0.05 % 0 . 0 . 8 0.05 %

Totales

96.102 . 0.0104 % . 0.9812 % . 0.1353 % . 0.0000 % 1,083 1.1269 %

Detalle de Errores Encontrados

Nivel Fecha del Dato Descripción Información Error Fecha Ingreso
0 1952-07-28 12:00:00 ff (Intensidad del Viento) debe ser numerico, entre 0 y 70 kt. 98 2014-09-24 15:22:00
0 1952-12-11 12:00:00 ff (Intensidad del Viento) debe ser numerico, entre 0 y 70 kt. 74 2014-10-06 15:27:00
0 1953-03-12 10:00:00 qff (Presión a nivel del Mar) debe ser numérico, entre 300 y 1100 101.1 2013-12-17 15:47:00
0 1953-03-30 11:00:00 qff (Presión a nivel del Mar) debe ser numérico, entre 300 y 1100 119.4 2013-12-19 14:02:00
0 1953-05-03 22:00:00 qff (Presión a nivel del Mar) debe ser numérico, entre 300 y 1100 104.2 2013-12-27 18:08:00
0 1953-06-14 14:00:00 qff (Presión a nivel del Mar) debe ser numérico, entre 300 y 1100 108.4 2014-01-03 15:05:00
0 1953-12-14 14:00:00 qff (Presión a nivel del Mar) debe ser numérico, entre 300 y 1100 105.1 2014-02-12 12:30:00
0 1953-12-14 16:00:00 qff (Presión a nivel del Mar) debe ser numérico, entre 300 y 1100 104.9 2014-02-12 12:30:00
0 1954-10-10 11:00:00 qff (Presión a nivel del Mar) debe ser numérico, entre 300 y 1100 125.3 2014-03-04 19:27:00
0 1953-03-30 16:00:00 Td (Temperatura Del Punto de Rocio) debe ser numérico, entre -50.0 y 50.0 94.0
Errores del Nivel 10
Nivel Fecha del Dato Descripción Información Error Fecha Ingreso
1 1952-10-12 10:00:00 Viento calma fue mal ingresado. dd = 0 - ff = 2 2014-10-01 16:03:00
1 1952-11-09 10:00:00 Viento calma fue mal ingresado. dd = 0 - ff = 9 2014-10-02 12:28:00
1 1953-01-04 13:00:00 Viento calma fue mal ingresado. dd = 100 - ff = 0 2013-12-09 16:01:00
1 1953-02-18 23:00:00 Viento calma fue mal ingresado. dd = 360 - ff = 0 2013-12-12 18:00:00
1 1953-06-15 17:00:00 Viento calma fue mal ingresado. dd = 360 - ff = 0 2014-01-03 15:20:00
1 1953-07-21 12:00:00 Viento calma fue mal ingresado. dd = 0 - ff = 4 2014-01-30 14:36:00
1 1954-10-06 18:00:00 Viento calma fue mal ingresado. dd = 270 - ff = 0 2014-03-04 18:31:00
1 1954-12-11 12:00:00 Viento calma fue mal ingresado. dd = 270 - ff = 0 2014-03-10 13:24:00
1 1952-03-30 13:00:00 HR (Humedad Relativa) es igual a 100% y Ts <> Td 9.0 - -1.0 2014-09-10 19:17:00
1 1952-04-03 11:00:00 Ts debe ser mayor o igual a Td Ts=7.0 - Td=9.0 2014-09-10 20:05:00
1 1952-04-03 11:00:00 HR (Humedad Relativa) es igual a 100% y Ts <> Td 7.0 - 9.0 2014-09-10 20:05:00
1 1952-04-04 17:00:00 HR (Humedad Relativa) es igual a 100% y Ts <> Td 12.1 - 11.1 2014-09-10 20:18:00
1 1952-04-07 15:00:00 HR (Humedad Relativa) es igual a 100% y Ts <> Td 10.9 - 10.4 2014-09-11 12:43:00
1 1952-04-08 13:00:00 HR (Humedad Relativa) es igual a 100% y Ts <> Td 9.3 - 9.0 2014-09-11 12:53:00
1 1952-04-08 14:00:00 HR (Humedad Relativa) es igual a 100% y Ts <> Td 13.5 - 13.0 2014-09-11 12:53:00
1 1952-04-09 11:00:00 Ts debe ser mayor o igual a Td Ts=5.0 - Td=5.2 2014-09-11 13:03:00
1 1952-04-10 14:00:00 Ts debe ser mayor o igual a Td Ts=12.0 - Td=13.0 2014-09-11 13:38:00
1 1952-04-10 14:00:00 HR (Humedad Relativa) es igual a 100% y Ts <> Td 12.0 - 13.0 2014-09-11 13:38:00
1 1952-04-11 14:00:00 HR (Humedad Relativa) es igual a 100% y Ts <> Td 12.5 - 12.0 2014-09-11 13:44:00
1 1952-04-15 13:00:00 HR (Humedad Relativa) es igual a 100% y Ts <> Td 11.5 - 11.1 2014-09-11 14:36:00
1 1952-04-19 13:00:00 HR (Humedad Relativa) es igual a 100% y Ts <> Td 9.7 - 9.0 2014-09-11 15:41:00
1 1952-04-24 21:00:00 HR (Humedad Relativa) es igual a 100% y Ts <> Td 13.5 - 13.0 2014-09-11 17:55:00
1 1952-04-26 11:00:00 HR (Humedad Relativa) es igual a 100% y Ts <> Td 3.5 - 3.0 2014-09-12 13:33:00
1 1952-04-30 11:00:00 Ts debe ser mayor o igual a Td Ts=4.0 - Td=4.2 2014-09-12 14:31:00
1 1952-04-30 13:00:00 Ts debe ser mayor o igual a Td Ts=4.0 - Td=4.2 2014-09-12 14:31:00
1 1952-05-02 14:00:00 HR (Humedad Relativa) es igual a 100% y Ts <> Td 5.3 - 5.0 2014-09-12 15:04:00
1 1952-05-10 15:00:00 Ts debe ser mayor o igual a Td Ts=10.6 - Td=11.1 2014-09-12 18:51:00
1 1952-05-10 15:00:00 HR (Humedad Relativa) es igual a 100% y Ts <> Td 10.6 - 11.1 2014-09-12 18:51:00
1 1952-05-10 16:00:00 Ts debe ser mayor o igual a Td Ts=10.7 - Td=11.1 2014-09-12 18:51:00
1 1952-05-10 16:00:00 HR (Humedad Relativa) es igual a 100% y Ts <> Td 10.7 - 11.1 2014-09-12 18:51:00
1 1952-05-10 17:00:00 Ts debe ser mayor o igual a Td Ts=11.0 - Td=11.1 2014-09-12 18:52:00
1 1952-05-12 20:00:00 Ts debe ser mayor o igual a Td Ts=11.8 - Td=12.1 2014-09-12 19:04:00
1 1952-05-12 20:00:00 HR (Humedad Relativa) es igual a 100% y Ts <> Td 11.8 - 12.1 2014-09-12 19:04:00
1 1952-05-13 11:00:00 HR (Humedad Relativa) es igual a 100% y Ts <> Td 11.1 - 10.0 2014-09-12 19:11:00
1 1952-05-13 13:00:00 Ts debe ser mayor o igual a Td Ts=10.0 - Td=10.1 2014-09-12 19:11:00
1 1952-05-13 17:00:00 HR (Humedad Relativa) es igual a 100% y Ts <> Td 10.4 - 10.1 2014-09-12 19:11:00
1 1952-05-14 14:00:00 Ts debe ser mayor o igual a Td Ts=11.0 - Td=11.1 2014-09-12 19:26:00
1 1952-05-16 14:00:00 Ts debe ser mayor o igual a Td Ts=10.0 - Td=10.1 2014-09-15 14:44:00
1 1952-05-16 15:00:00 Ts debe ser mayor o igual a Td Ts=11.8 - Td=12.1 2014-09-15 14:44:00
1 1952-05-16 15:00:00 HR (Humedad Relativa) es igual a 100% y Ts <> Td 11.8 - 12.1 2014-09-15 14:44:00
1 1952-05-17 19:00:00 Ts debe ser mayor o igual a Td Ts=11.0 - Td=11.1 2014-09-15 14:51:00
1 1952-05-17 20:00:00 Ts debe ser mayor o igual a Td Ts=11.0 - Td=11.1 2014-09-15 14:51:00
1 1952-05-18 14:00:00 HR (Humedad Relativa) es igual a 100% y Ts <> Td 11.0 - 10.0 2014-09-15 15:28:00
1 1952-05-18 15:00:00 HR (Humedad Relativa) es igual a 100% y Ts <> Td 11.0 - 10.0 2014-09-15 15:28:00
1 1952-05-21 15:00:00 HR (Humedad Relativa) es igual a 100% y Ts <> Td 2.3 - 2.0 2014-09-15 16:11:00
1 1952-05-24 14:00:00 Ts debe ser mayor o igual a Td Ts=-2.0 - Td=4.4 2014-09-15 18:16:00
1 1952-05-27 13:00:00 HR (Humedad Relativa) es igual a 100% y Ts <> Td 9.3 - 9.0 2014-09-15 18:36:00
1 1952-05-30 13:00:00 Ts debe ser mayor o igual a Td Ts=0.8 - Td=1.2 2014-09-15 19:02:00
1 1952-05-30 13:00:00 HR (Humedad Relativa) es igual a 100% y Ts <> Td 0.8 - 1.2 2014-09-15 19:02:00
1 1952-05-30 14:00:00 Ts debe ser mayor o igual a Td Ts=3.8 - Td=4.2 2014-09-15 19:02:00
1 1952-05-30 14:00:00 HR (Humedad Relativa) es igual a 100% y Ts <> Td 3.8 - 4.2 2014-09-15 19:02:00
1 1952-06-03 21:00:00 Ts debe ser mayor o igual a Td Ts=7.8 - Td=8.0 2014-09-15 19:56:00
1 1952-06-03 22:00:00 HR (Humedad Relativa) es igual a 100% y Ts <> Td 7.4 - 7.0 2014-09-15 19:56:00
1 1952-06-04 13:00:00 Ts debe ser mayor o igual a Td Ts=7.0 - Td=7.2 2014-09-17 12:44:00
1 1952-06-04 14:00:00 HR (Humedad Relativa) es igual a 100% y Ts <> Td 7.3 - 7.0 2014-09-17 12:44:00
1 1952-06-04 15:00:00 Ts debe ser mayor o igual a Td Ts=7.8 - Td=8.0 2014-09-17 12:44:00
1 1952-06-04 17:00:00 Ts debe ser mayor o igual a Td Ts=8.8 - Td=9.0 2014-09-17 12:44:00
1 1952-06-06 21:00:00 Ts debe ser mayor o igual a Td Ts=9.8 - Td=10.1 2014-09-17 13:12:00
1 1952-06-06 21:00:00 HR (Humedad Relativa) es igual a 100% y Ts <> Td 9.8 - 10.1 2014-09-17 13:12:00
1 1952-06-06 22:00:00 Ts debe ser mayor o igual a Td Ts=9.5 - Td=10.1 2014-09-17 13:13:00
1 1952-06-06 22:00:00 HR (Humedad Relativa) es igual a 100% y Ts <> Td 9.5 - 10.1 2014-09-17 13:13:00
1 1952-06-07 13:00:00 Ts debe ser mayor o igual a Td Ts=1.8 - Td=2.0 2014-09-17 13:28:00
1 1952-06-07 13:00:00 HR (Humedad Relativa) es igual a 100% y Ts <> Td 1.8 - 2.0 2014-09-17 13:28:00
1 1952-06-09 11:00:00 HR (Humedad Relativa) es igual a 100% y Ts <> Td 2.3 - 2.0 2014-09-17 13:41:00
1 1952-06-12 14:00:00 HR (Humedad Relativa) es igual a 100% y Ts <> Td 2.2 - 2.0 2014-09-17 14:23:00
1 1952-06-12 15:00:00 HR (Humedad Relativa) es igual a 100% y Ts <> Td 2.3 - 2.0 2014-09-17 14:23:00
1 1952-06-12 16:00:00 Ts debe ser mayor o igual a Td Ts=6.8 - Td=7.0 2014-09-17 14:23:00
1 1952-06-14 19:00:00 Ts debe ser mayor o igual a Td Ts=3.9 - Td=4.2 2014-09-17 14:41:00
1 1952-06-14 19:00:00 HR (Humedad Relativa) es igual a 100% y Ts <> Td 3.9 - 4.2 2014-09-17 14:41:00
1 1952-06-14 20:00:00 Ts debe ser mayor o igual a Td Ts=4.0 - Td=4.2 2014-09-17 14:41:00
1 1952-06-14 21:00:00 Ts debe ser mayor o igual a Td Ts=4.1 - Td=4.2 2014-09-17 14:41:00
1 1952-06-14 22:00:00 Ts debe ser mayor o igual a Td Ts=4.0 - Td=4.2 2014-09-17 14:41:00
1 1952-06-18 11:00:00 HR (Humedad Relativa) es igual a 100% y Ts <> Td -4.2 - -5.0 2014-09-22 13:48:00
1 1952-06-18 14:00:00 Ts debe ser mayor o igual a Td Ts=1.0 - Td=1.2 2014-09-22 13:48:00
1 1952-06-18 14:00:00 HR (Humedad Relativa) es igual a 100% y Ts <> Td 1.0 - 1.2 2014-09-22 13:48:00
1 1952-06-20 21:00:00 Ts debe ser mayor o igual a Td Ts=7.8 - Td=8.0 2014-09-22 14:39:00
1 1952-06-20 22:00:00 HR (Humedad Relativa) es igual a 100% y Ts <> Td 7.3 - 7.0 2014-09-22 14:39:00
1 1952-06-24 13:00:00 HR (Humedad Relativa) es igual a 100% y Ts <> Td 9.4 - 9.0 2014-09-22 16:01:00
1 1952-06-25 14:00:00 HR (Humedad Relativa) es igual a 100% y Ts <> Td 7.4 - 7.1 2014-09-22 16:06:00
1 1952-06-27 22:00:00 HR (Humedad Relativa) es igual a 100% y Ts <> Td 5.3 - 5.1 2014-09-22 16:19:00
1 1952-07-01 11:00:00 HR (Humedad Relativa) es igual a 100% y Ts <> Td 2.3 - 1.0 2014-09-22 20:04:00
1 1952-07-05 11:00:00 Ts debe ser mayor o igual a Td Ts=9.8 - Td=10.1 2014-09-23 13:23:00
1 1952-07-05 11:00:00 HR (Humedad Relativa) es igual a 100% y Ts <> Td 9.8 - 10.1 2014-09-23 13:23:00
1 1952-07-05 13:00:00 Ts debe ser mayor o igual a Td Ts=10.0 - Td=10.1 2014-09-23 13:23:00
1 1952-07-05 14:00:00 Ts debe ser mayor o igual a Td Ts=10.0 - Td=10.1 2014-09-23 13:23:00
1 1952-07-05 15:00:00 HR (Humedad Relativa) es igual a 100% y Ts <> Td 10.4 - 10.1 2014-09-23 13:24:00
1 1952-07-05 16:00:00 HR (Humedad Relativa) es igual a 100% y Ts <> Td 10.4 - 10.1 2014-09-23 13:24:00
1 1952-07-05 17:00:00 HR (Humedad Relativa) es igual a 100% y Ts <> Td 10.4 - 10.1 2014-09-23 13:24:00
1 1952-07-08 13:00:00 Ts debe ser mayor o igual a Td Ts=10.6 - Td=11.0 2014-09-23 15:30:00
1 1952-07-08 13:00:00 HR (Humedad Relativa) es igual a 100% y Ts <> Td 10.6 - 11.0 2014-09-23 15:30:00
1 1952-07-10 14:00:00 HR (Humedad Relativa) es igual a 100% y Ts <> Td 3.8 - 3.5 2014-09-23 15:55:00
1 1952-07-14 22:00:00 Ts debe ser mayor o igual a Td Ts=10.0 - Td=10.1 2014-09-23 18:15:00
1 1952-07-15 11:00:00 HR (Humedad Relativa) es igual a 100% y Ts <> Td 6.1 - 5.0 2014-09-23 18:27:00
1 1952-07-16 11:00:00 Ts debe ser mayor o igual a Td Ts=8.8 - Td=9.0 2014-09-23 19:04:00
1 1952-07-16 13:00:00 Ts debe ser mayor o igual a Td Ts=8.8 - Td=9.0 2014-09-23 19:04:00
1 1952-07-16 14:00:00 HR (Humedad Relativa) es igual a 100% y Ts <> Td 9.3 - 9.0 2014-09-23 19:04:00
1 1952-07-16 15:00:00 Ts debe ser mayor o igual a Td Ts=8.6 - Td=9.0 2014-09-23 19:04:00
1 1952-07-16 15:00:00 HR (Humedad Relativa) es igual a 100% y Ts <> Td 8.6 - 9.0 2014-09-23 19:04:00
1 1952-07-16 16:00:00 HR (Humedad Relativa) es igual a 100% y Ts <> Td 9.3 - 9.0 2014-09-23 19:04:00
1 1952-07-19 11:00:00 Ts debe ser mayor o igual a Td Ts=4.0 - Td=4.2 2014-09-23 19:21:00
1 1952-07-19 13:00:00 Ts debe ser mayor o igual a Td Ts=4.6 - Td=5.0 2014-09-23 19:21:00
1 1952-07-19 13:00:00 HR (Humedad Relativa) es igual a 100% y Ts <> Td 4.6 - 5.0 2014-09-23 19:21:00
1 1952-07-19 15:00:00 Ts debe ser mayor o igual a Td Ts=5.5 - Td=6.0 2014-09-23 19:21:00
1 1952-07-19 15:00:00 HR (Humedad Relativa) es igual a 100% y Ts <> Td 5.5 - 6.0 2014-09-23 19:21:00
1 1952-07-19 16:00:00 Ts debe ser mayor o igual a Td Ts=5.8 - Td=6.0 2014-09-23 19:21:00
1 1952-07-21 13:00:00 Ts debe ser mayor o igual a Td Ts=-0.2 - Td=0.2 2014-09-23 19:39:00
1 1952-07-21 13:00:00 HR (Humedad Relativa) es igual a 100% y Ts <> Td -0.2 - 0.2 2014-09-23 19:39:00
1 1952-07-22 14:00:00 HR (Humedad Relativa) es igual a 100% y Ts <> Td -1.0 - -1.2 2014-09-23 20:11:00
1 1952-07-23 16:00:00 Ts debe ser mayor o igual a Td Ts=6.9 - Td=7.0 2014-09-23 20:29:00
1 1952-07-24 16:00:00 Ts debe ser mayor o igual a Td Ts=5.8 - Td=6.0 2014-09-24 13:20:00
1 1952-07-25 14:00:00 Ts debe ser mayor o igual a Td Ts=3.8 - Td=4.2 2014-09-24 13:41:00
1 1952-07-25 14:00:00 HR (Humedad Relativa) es igual a 100% y Ts <> Td 3.8 - 4.2 2014-09-24 13:41:00
1 1952-07-25 15:00:00 Ts debe ser mayor o igual a Td Ts=7.8 - Td=8.0 2014-09-24 13:41:00
1 1952-07-26 17:00:00 Ts debe ser mayor o igual a Td Ts=8.1 - Td=9.0 2014-09-24 13:50:00
1 1952-07-26 17:00:00 HR (Humedad Relativa) es igual a 100% y Ts <> Td 8.1 - 9.0 2014-09-24 13:50:00
1 1952-07-27 11:00:00 Ts debe ser mayor o igual a Td Ts=6.8 - Td=7.0 2014-09-24 14:27:00
1 1952-07-27 15:00:00 Ts debe ser mayor o igual a Td Ts=8.8 - Td=9.0 2014-09-24 14:27:00
1 1952-07-27 20:00:00 HR (Humedad Relativa) es igual a 100% y Ts <> Td 9.3 - 9.0 2014-09-24 14:27:00
1 1952-07-28 14:00:00 Ts debe ser mayor o igual a Td Ts=8.7 - Td=9.0 2014-09-24 15:22:00
1 1952-07-28 14:00:00 HR (Humedad Relativa) es igual a 100% y Ts <> Td 8.7 - 9.0 2014-09-24 15:22:00
1 1952-07-28 15:00:00 Ts debe ser mayor o igual a Td Ts=8.9 - Td=9.0 2014-09-24 15:22:00
1 1952-07-28 19:00:00 HR (Humedad Relativa) es igual a 100% y Ts <> Td 9.0 - 8.0 2014-09-24 15:22:00
1 1952-07-28 20:00:00 HR (Humedad Relativa) es igual a 100% y Ts <> Td 9.1 - 8.0 2014-09-24 15:22:00
1 1952-07-30 11:00:00 HR (Humedad Relativa) es igual a 100% y Ts <> Td 0.0 - -1.0 2014-09-24 15:38:00
1 1952-08-01 13:00:00 HR (Humedad Relativa) es igual a 100% y Ts <> Td 5.0 - -0.2 2014-09-24 16:02:00
1 1952-08-01 14:00:00 HR (Humedad Relativa) es igual a 100% y Ts <> Td 3.0 - 2.8 2014-09-24 16:02:00
1 1952-08-01 15:00:00 HR (Humedad Relativa) es igual a 100% y Ts <> Td 3.0 - 2.8 2014-09-24 16:02:00
1 1952-08-04 21:00:00 Ts debe ser mayor o igual a Td Ts=7.8 - Td=8.0 2014-09-24 18:19:00
1 1952-08-05 15:00:00 Ts debe ser mayor o igual a Td Ts=5.8 - Td=6.0 2014-09-24 18:25:00
1 1952-08-05 19:00:00 HR (Humedad Relativa) es igual a 100% y Ts <> Td 6.3 - 6.0 2014-09-24 18:25:00
1 1952-08-08 11:00:00 HR (Humedad Relativa) es igual a 100% y Ts <> Td 8.0 - 3.0 2014-09-24 18:55:00
1 1952-08-08 15:00:00 HR (Humedad Relativa) es igual a 100% y Ts <> Td 6.3 - 6.0 2014-09-24 18:55:00
1 1952-08-08 16:00:00 HR (Humedad Relativa) es igual a 100% y Ts <> Td 6.3 - 6.0 2014-09-24 18:55:00
1 1952-08-08 21:00:00 Ts debe ser mayor o igual a Td Ts=10.0 - Td=10.1 2014-09-24 18:55:00
1 1952-08-08 22:00:00 Ts debe ser mayor o igual a Td Ts=10.0 - Td=10.1 2014-09-24 18:55:00
1 1952-08-09 16:00:00 Ts debe ser mayor o igual a Td Ts=7.8 - Td=8.0 2014-09-24 19:03:00
1 1952-08-11 14:00:00 Ts debe ser mayor o igual a Td Ts=2.0 - Td=2.1 2014-09-24 19:47:00
1 1952-08-12 11:00:00 HR (Humedad Relativa) es igual a 100% y Ts <> Td 1.0 - 0.0 2014-09-24 19:54:00
1 1952-08-13 14:00:00 Ts debe ser mayor o igual a Td Ts=5.5 - Td=6.0 2014-09-24 19:59:00
1 1952-08-13 14:00:00 HR (Humedad Relativa) es igual a 100% y Ts <> Td 5.5 - 6.0 2014-09-24 19:59:00
1 1952-08-13 15:00:00 Ts debe ser mayor o igual a Td Ts=6.8 - Td=7.0 2014-09-24 19:59:00
1 1952-08-14 14:00:00 Ts debe ser mayor o igual a Td Ts=4.8 - Td=5.0 2014-09-24 20:08:00
1 1952-08-14 15:00:00 Ts debe ser mayor o igual a Td Ts=5.8 - Td=6.0 2014-09-24 20:08:00
1 1952-08-15 16:00:00 HR (Humedad Relativa) es igual a 100% y Ts <> Td 6.5 - 5.5 2014-09-24 20:30:00
1 1952-08-15 22:00:00 HR (Humedad Relativa) es igual a 100% y Ts <> Td 5.1 - 4.5 2014-09-24 20:30:00
1 1952-08-16 13:00:00 HR (Humedad Relativa) es igual a 100% y Ts <> Td 3.4 - 3.0 2014-09-25 12:38:00
1 1952-08-16 14:00:00 Ts debe ser mayor o igual a Td Ts=4.8 - Td=5.0 2014-09-25 12:38:00
1 1952-08-16 15:00:00 HR (Humedad Relativa) es igual a 100% y Ts <> Td 5.3 - 5.0 2014-09-25 12:38:00
1 1952-08-16 16:00:00 Ts debe ser mayor o igual a Td Ts=5.6 - Td=6.0 2014-09-25 12:38:00
1 1952-08-16 16:00:00 HR (Humedad Relativa) es igual a 100% y Ts <> Td 5.6 - 6.0 2014-09-25 12:38:00
1 1952-08-16 19:00:00 HR (Humedad Relativa) es igual a 100% y Ts <> Td 5.4 - 5.0 2014-09-25 12:38:00
1 1952-08-16 20:00:00 Ts debe ser mayor o igual a Td Ts=5.8 - Td=6.0 2014-09-25 12:38:00
1 1952-08-20 16:00:00 Ts debe ser mayor o igual a Td Ts=11.0 - Td=11.1 2014-09-25 15:06:00
1 1952-08-25 14:00:00 Ts debe ser mayor o igual a Td Ts=5.1 - Td=5.6 2014-09-25 18:06:00
1 1952-08-25 14:00:00 HR (Humedad Relativa) es igual a 100% y Ts <> Td 5.1 - 5.6 2014-09-25 18:06:00
1 1952-09-03 14:00:00 HR (Humedad Relativa) es igual a 100% y Ts <> Td 7.3 - 7.0 2014-09-29 13:28:00
1 1952-09-03 16:00:00 HR (Humedad Relativa) es igual a 100% y Ts <> Td 8.3 - 8.0 2014-09-29 13:28:00
1 1952-09-03 17:00:00 Ts debe ser mayor o igual a Td Ts=10.8 - Td=11.1 2014-09-29 13:28:00
1 1952-09-03 17:00:00 HR (Humedad Relativa) es igual a 100% y Ts <> Td 10.8 - 11.1 2014-09-29 13:28:00
1 1952-09-09 11:00:00 Ts debe ser mayor o igual a Td Ts=4.8 - Td=5.0 2014-09-29 16:06:00
1 1952-09-16 15:00:00 Ts debe ser mayor o igual a Td Ts=7.8 - Td=8.0 2014-09-29 19:22:00
1 1952-09-16 16:00:00 Ts debe ser mayor o igual a Td Ts=7.8 - Td=8.0 2014-09-29 19:22:00
1 1952-09-16 17:00:00 Ts debe ser mayor o igual a Td Ts=8.8 - Td=9.0 2014-09-29 19:22:00
1 1952-09-17 14:00:00 HR (Humedad Relativa) es igual a 100% y Ts <> Td 6.4 - 6.0 2014-09-29 19:28:00
1 1952-09-17 15:00:00 HR (Humedad Relativa) es igual a 100% y Ts <> Td 6.4 - 6.0 2014-09-29 19:28:00
1 1952-10-04 10:00:00 Ts debe ser mayor o igual a Td Ts=11.0 - Td=11.1 2014-09-30 19:42:00
1 1952-10-04 11:00:00 Ts debe ser mayor o igual a Td Ts=11.0 - Td=11.1 2014-09-30 19:42:00
1 1952-10-04 15:00:00 Ts debe ser mayor o igual a Td Ts=12.0 - Td=12.1 2014-09-30 19:42:00
1 1952-10-04 16:00:00 Ts debe ser mayor o igual a Td Ts=12.0 - Td=12.1 2014-09-30 19:42:00
1 1952-10-04 17:00:00 Ts debe ser mayor o igual a Td Ts=12.0 - Td=12.1 2014-09-30 19:42:00
1 1952-10-06 18:00:00 Ts debe ser mayor o igual a Td Ts=7.7 - Td=8.0 2014-09-30 20:10:00
1 1952-10-06 18:00:00 HR (Humedad Relativa) es igual a 100% y Ts <> Td 7.7 - 8.0 2014-09-30 20:10:00
1 1952-10-06 19:00:00 Ts debe ser mayor o igual a Td Ts=7.8 - Td=8.0 2014-09-30 20:10:00
1 1952-10-06 20:00:00 Ts debe ser mayor o igual a Td Ts=7.8 - Td=8.0 2014-09-30 20:10:00
1 1952-10-06 22:00:00 Ts debe ser mayor o igual a Td Ts=6.8 - Td=7.0 2014-09-30 20:10:00
1 1952-10-23 15:00:00 HR (Humedad Relativa) es igual a 100% y Ts <> Td 14.1 - 10.7 2014-10-01 18:29:00
1 1952-11-05 10:00:00 HR (Humedad Relativa) es igual a 100% y Ts <> Td 7.0 - 6.0 2014-10-01 20:05:00
1 1952-11-05 11:00:00 HR (Humedad Relativa) es igual a 100% y Ts <> Td 7.0 - 6.0 2014-10-01 20:05:00
1 1952-11-06 13:00:00 Ts debe ser mayor o igual a Td Ts=10.0 - Td=10.1 2014-10-01 20:10:00
1 1952-11-07 12:00:00 Ts debe ser mayor o igual a Td Ts=8.6 - Td=9.0 2014-10-01 20:21:00
1 1952-11-07 12:00:00 HR (Humedad Relativa) es igual a 100% y Ts <> Td 8.6 - 9.0 2014-10-01 20:21:00
1 1952-11-22 14:00:00 HR (Humedad Relativa) es igual a 100% y Ts <> Td 13.2 - 12.0 2014-10-02 18:03:00
1 1952-11-27 10:00:00 Ts debe ser mayor o igual a Td Ts=11.0 - Td=11.1 2014-10-02 20:14:00
1 1952-12-06 10:00:00 Ts debe ser mayor o igual a Td Ts=12.0 - Td=12.2 2014-10-06 13:46:00
1 1952-12-06 11:00:00 Ts debe ser mayor o igual a Td Ts=12.0 - Td=12.2 2014-10-06 13:46:00
1 1953-02-01 17:00:00 Ts debe ser mayor o igual a Td Ts=10.0 - Td=11.0 2013-12-11 15:27:00
1 1953-02-03 14:00:00 Ts debe ser mayor o igual a Td Ts=10.8 - Td=11.0 2013-12-11 16:23:00
1 1953-02-20 10:00:00 HR (Humedad Relativa) es igual a 100% y Ts <> Td 11.0 - 10.3 2013-12-12 18:25:00
1 1953-02-26 11:00:00 HR (Humedad Relativa) es igual a 100% y Ts <> Td 10.0 - 9.0 2013-12-13 14:10:00
1 1953-03-23 11:00:00 HR (Humedad Relativa) es igual a 100% y Ts <> Td 5.0 - 2.0 2013-12-18 12:41:00
1 1953-03-24 12:00:00 HR (Humedad Relativa) es igual a 100% y Ts <> Td 6.0 - 5.0 2013-12-18 12:58:00
1 1953-03-30 16:00:00 Ts debe ser mayor o igual a Td Ts=19.0 - Td=94.0 2013-12-19 14:03:00
1 1953-04-10 19:00:00 Ts debe ser mayor o igual a Td Ts=17.1 - Td=17.8 2013-12-26 15:15:00
1 1953-04-15 13:00:00 Ts debe ser mayor o igual a Td Ts=-0.1 - Td=0.1 2013-12-26 15:48:00
1 1953-04-15 13:00:00 HR (Humedad Relativa) es igual a 100% y Ts <> Td -0.1 - 0.1 2013-12-26 15:48:00
1 1953-04-19 21:00:00 Ts debe ser mayor o igual a Td Ts=15.0 - Td=17.0 2013-12-26 18:28:00
1 1953-04-22 12:00:00 HR (Humedad Relativa) es igual a 100% y Ts <> Td 3.3 - 2.7 2013-12-26 19:17:00
1 1953-04-25 10:00:00 HR (Humedad Relativa) es igual a 100% y Ts <> Td 11.1 - 10.8 2013-12-27 12:38:00
1 1953-05-13 23:00:00 Ts debe ser mayor o igual a Td Ts=12.2 - Td=12.5 2013-12-30 15:57:00
1 1953-06-01 23:00:00 HR (Humedad Relativa) es igual a 100% y Ts <> Td 12.2 - 6.2 2014-01-02 16:01:00
1 1953-06-02 12:00:00 HR (Humedad Relativa) es igual a 100% y Ts <> Td 4.8 - 0.7 2014-01-02 18:02:00
1 1953-06-02 13:00:00 HR (Humedad Relativa) es igual a 100% y Ts <> Td 4.8 - 0.7 2014-01-02 18:02:00
1 1953-06-03 15:00:00 HR (Humedad Relativa) es igual a 100% y Ts <> Td 7.8 - 6.2 2014-01-02 18:12:00
1 1953-06-07 11:00:00 Ts debe ser mayor o igual a Td Ts=8.4 - Td=8.6 2014-01-03 14:30:00
1 1953-06-07 12:00:00 Ts debe ser mayor o igual a Td Ts=7.2 - Td=8.0 2014-01-03 14:30:00
1 1953-06-07 13:00:00 Ts debe ser mayor o igual a Td Ts=6.6 - Td=6.8 2014-01-03 14:30:00
1 1953-07-03 12:00:00 Ts debe ser mayor o igual a Td Ts=-2.4 - Td=-2.3 2014-01-28 19:57:00
1 1953-07-03 13:00:00 Ts debe ser mayor o igual a Td Ts=-2.4 - Td=2.3 2014-01-28 19:57:00
1 1953-07-03 14:00:00 Ts debe ser mayor o igual a Td Ts=-1.8 - Td=-1.7 2014-01-28 19:57:00
1 1953-07-19 10:00:00 Ts debe ser mayor o igual a Td Ts=-2.3 - Td=-2.0 2014-01-29 20:21:00
1 1953-07-19 11:00:00 Ts debe ser mayor o igual a Td Ts=-2.3 - Td=-2.0 2014-01-29 20:21:00
1 1953-07-19 12:00:00 Ts debe ser mayor o igual a Td Ts=-2.3 - Td=-2.0 2014-01-29 20:21:00
1 1953-07-19 13:00:00 Ts debe ser mayor o igual a Td Ts=-2.3 - Td=-2.0 2014-01-29 20:21:00
1 1953-07-19 14:00:00 Ts debe ser mayor o igual a Td Ts=-2.2 - Td=-2.0 2014-01-29 20:21:00
1 1953-07-19 15:00:00 Ts debe ser mayor o igual a Td Ts=-1.1 - Td=-1.0 2014-01-29 20:21:00
1 1953-07-20 12:00:00 Ts debe ser mayor o igual a Td Ts=-4.2 - Td=-3.6 2014-01-29 20:27:00
1 1953-08-04 17:00:00 HR (Humedad Relativa) es igual a 100% y Ts <> Td 10.1 - 9.6 2014-01-30 19:18:00
1 1953-08-04 18:00:00 HR (Humedad Relativa) es igual a 100% y Ts <> Td 8.6 - 8.2 2014-01-30 19:18:00
1 1953-08-04 19:00:00 HR (Humedad Relativa) es igual a 100% y Ts <> Td 8.5 - 8.2 2014-01-30 19:18:00
1 1953-08-04 20:00:00 HR (Humedad Relativa) es igual a 100% y Ts <> Td 9.6 - 9.4 2014-01-30 19:18:00
1 1953-08-04 22:00:00 HR (Humedad Relativa) es igual a 100% y Ts <> Td 9.1 - 8.9 2014-01-30 19:19:00
1 1953-08-05 14:00:00 HR (Humedad Relativa) es igual a 100% y Ts <> Td 6.8 - 6.4 2014-01-30 19:47:00
1 1953-08-05 15:00:00 HR (Humedad Relativa) es igual a 100% y Ts <> Td 9.1 - 8.9 2014-01-30 19:47:00
1 1953-08-05 16:00:00 HR (Humedad Relativa) es igual a 100% y Ts <> Td 7.8 - 7.4 2014-01-30 19:47:00
1 1953-08-05 18:00:00 HR (Humedad Relativa) es igual a 100% y Ts <> Td 10.8 - 9.8 2014-01-30 19:47:00
1 1953-08-05 19:00:00 HR (Humedad Relativa) es igual a 100% y Ts <> Td 10.8 - 9.8 2014-01-30 19:48:00
1 1953-08-05 23:00:00 HR (Humedad Relativa) es igual a 100% y Ts <> Td 8.1 - 7.3 2014-01-30 19:48:00
1 1953-08-06 10:00:00 HR (Humedad Relativa) es igual a 100% y Ts <> Td 6.8 - 6.0 2014-01-30 20:04:00
1 1953-08-06 11:00:00 HR (Humedad Relativa) es igual a 100% y Ts <> Td 6.6 - 6.2 2014-01-30 20:05:00
1 1953-08-06 12:00:00 HR (Humedad Relativa) es igual a 100% y Ts <> Td 7.8 - 7.0 2014-01-30 20:05:00
1 1953-08-06 13:00:00 HR (Humedad Relativa) es igual a 100% y Ts <> Td 7.8 - 7.0 2014-01-30 20:05:00
1 1953-08-06 14:00:00 HR (Humedad Relativa) es igual a 100% y Ts <> Td 8.8 - 7.8 2014-01-30 20:05:00
1 1953-08-06 15:00:00 HR (Humedad Relativa) es igual a 100% y Ts <> Td 9.4 - 8.2 2014-01-30 20:05:00
1 1953-08-06 16:00:00 HR (Humedad Relativa) es igual a 100% y Ts <> Td 9.8 - 8.8 2014-01-30 20:05:00
1 1953-08-06 17:00:00 HR (Humedad Relativa) es igual a 100% y Ts <> Td 10.2 - 9.1 2014-01-30 20:05:00
1 1953-08-06 18:00:00 HR (Humedad Relativa) es igual a 100% y Ts <> Td 9.8 - 9.0 2014-01-30 20:05:00
1 1953-08-06 19:00:00 HR (Humedad Relativa) es igual a 100% y Ts <> Td 9.4 - 8.7 2014-01-30 20:05:00
1 1953-08-06 20:00:00 HR (Humedad Relativa) es igual a 100% y Ts <> Td 9.4 - 8.7 2014-01-30 20:05:00
1 1953-08-06 21:00:00 HR (Humedad Relativa) es igual a 100% y Ts <> Td 9.8 - 9.0 2014-01-30 20:05:00
1 1953-08-06 22:00:00 HR (Humedad Relativa) es igual a 100% y Ts <> Td 9.4 - 9.0 2014-01-30 20:05:00
1 1953-08-06 23:00:00 HR (Humedad Relativa) es igual a 100% y Ts <> Td 8.4 - 7.8 2014-01-30 20:05:00
1 1953-08-07 10:00:00 HR (Humedad Relativa) es igual a 100% y Ts <> Td 8.2 - 7.9 2014-01-30 20:38:00
1 1953-08-07 11:00:00 HR (Humedad Relativa) es igual a 100% y Ts <> Td 8.3 - 8.0 2014-01-30 20:38:00
1 1953-08-07 12:00:00 HR (Humedad Relativa) es igual a 100% y Ts <> Td 9.0 - 8.7 2014-01-30 20:38:00
1 1953-08-07 13:00:00 HR (Humedad Relativa) es igual a 100% y Ts <> Td 9.0 - 8.7 2014-01-30 20:40:00
1 1953-08-09 10:00:00 HR (Humedad Relativa) es igual a 100% y Ts <> Td 6.8 - 6.0 2014-01-30 20:54:00
1 1953-08-09 11:00:00 HR (Humedad Relativa) es igual a 100% y Ts <> Td 6.8 - 6.0 2014-01-30 20:54:00
1 1953-08-10 14:00:00 HR (Humedad Relativa) es igual a 100% y Ts <> Td 9.2 - 8.2 2014-01-30 21:30:00
1 1953-08-10 15:00:00 HR (Humedad Relativa) es igual a 100% y Ts <> Td 8.4 - 7.7 2014-01-30 21:30:00
1 1953-08-10 16:00:00 HR (Humedad Relativa) es igual a 100% y Ts <> Td 7.6 - 6.8 2014-01-30 21:29:00
1 1953-08-10 17:00:00 HR (Humedad Relativa) es igual a 100% y Ts <> Td 7.8 - 7.0 2014-01-30 21:30:00
1 1953-08-10 18:00:00 HR (Humedad Relativa) es igual a 100% y Ts <> Td 8.4 - 8.0 2014-01-30 21:29:00
1 1953-08-10 19:00:00 HR (Humedad Relativa) es igual a 100% y Ts <> Td 8.4 - 8.0 2014-01-30 21:29:00
1 1953-08-10 20:00:00 HR (Humedad Relativa) es igual a 100% y Ts <> Td 8.6 - 8.2 2014-01-30 21:30:00
1 1953-08-10 21:00:00 HR (Humedad Relativa) es igual a 100% y Ts <> Td 7.6 - 7.2 2014-01-30 21:30:00
1 1953-08-10 22:00:00 HR (Humedad Relativa) es igual a 100% y Ts <> Td 6.8 - 6.4 2014-01-30 21:29:00
1 1953-08-10 23:00:00 HR (Humedad Relativa) es igual a 100% y Ts <> Td 6.8 - 6.4 2014-01-30 21:29:00
1 1953-08-11 10:00:00 HR (Humedad Relativa) es igual a 100% y Ts <> Td 7.8 - 7.0 2014-01-30 21:34:00
1 1953-08-11 11:00:00 HR (Humedad Relativa) es igual a 100% y Ts <> Td 7.8 - 7.0 2014-01-30 21:34:00
1 1953-08-11 12:00:00 HR (Humedad Relativa) es igual a 100% y Ts <> Td 8.8 - 8.3 2014-01-30 21:34:00
1 1953-08-11 13:00:00 HR (Humedad Relativa) es igual a 100% y Ts <> Td 8.6 - 8.0 2014-01-31 12:55:00
1 1953-08-11 14:00:00 HR (Humedad Relativa) es igual a 100% y Ts <> Td 8.5 - 7.7 2014-01-31 12:55:00
1 1953-08-11 15:00:00 HR (Humedad Relativa) es igual a 100% y Ts <> Td 8.8 - 8.0 2014-01-31 12:55:00
1 1953-08-11 16:00:00 HR (Humedad Relativa) es igual a 100% y Ts <> Td 9.1 - 8.0 2014-01-31 12:55:00
1 1953-08-11 17:00:00 HR (Humedad Relativa) es igual a 100% y Ts <> Td 9.0 - 8.1 2014-01-31 12:55:00
1 1953-08-11 18:00:00 HR (Humedad Relativa) es igual a 100% y Ts <> Td 9.8 - 9.0 2014-01-31 12:55:00
1 1953-08-11 21:00:00 HR (Humedad Relativa) es igual a 100% y Ts <> Td 10.2 - 9.4 2014-01-31 12:55:00
1 1953-08-11 22:00:00 HR (Humedad Relativa) es igual a 100% y Ts <> Td 9.8 - 9.0 2014-01-31 12:56:00
1 1953-08-13 12:00:00 HR (Humedad Relativa) es igual a 100% y Ts <> Td 3.2 - 3.0 2014-01-31 13:50:00
1 1953-08-13 13:00:00 HR (Humedad Relativa) es igual a 100% y Ts <> Td 3.2 - 3.0 2014-01-31 13:51:00
1 1953-08-13 15:00:00 HR (Humedad Relativa) es igual a 100% y Ts <> Td 5.8 - 5.6 2014-01-31 13:51:00
1 1953-08-14 10:00:00 HR (Humedad Relativa) es igual a 100% y Ts <> Td 8.7 - 8.1 2014-01-31 14:13:00
1 1953-08-14 11:00:00 HR (Humedad Relativa) es igual a 100% y Ts <> Td 8.7 - 8.1 2014-01-31 14:13:00
1 1953-08-18 10:00:00 HR (Humedad Relativa) es igual a 100% y Ts <> Td 6.4 - 6.0 2014-01-31 15:58:00
1 1953-08-18 11:00:00 HR (Humedad Relativa) es igual a 100% y Ts <> Td 6.4 - 6.0 2014-01-31 15:58:00
1 1953-08-18 12:00:00 HR (Humedad Relativa) es igual a 100% y Ts <> Td 6.6 - 6.2 2014-01-31 15:58:00
1 1953-08-18 13:00:00 HR (Humedad Relativa) es igual a 100% y Ts <> Td 6.8 - 6.2 2014-01-31 16:06:00
1 1953-08-18 14:00:00 HR (Humedad Relativa) es igual a 100% y Ts <> Td 10.2 - 9.2 2014-01-31 16:06:00
1 1953-08-18 15:00:00 HR (Humedad Relativa) es igual a 100% y Ts <> Td 11.2 - 9.4 2014-01-31 16:06:00
1 1953-08-19 10:00:00 HR (Humedad Relativa) es igual a 100% y Ts <> Td 8.8 - 8.0 2014-01-31 18:03:00
1 1953-08-19 11:00:00 HR (Humedad Relativa) es igual a 100% y Ts <> Td 8.8 - 8.0 2014-01-31 18:03:00
1 1953-08-19 12:00:00 HR (Humedad Relativa) es igual a 100% y Ts <> Td 6.4 - 5.6 2014-01-31 18:03:00
1 1953-08-19 13:00:00 HR (Humedad Relativa) es igual a 100% y Ts <> Td 5.6 - 5.0 2014-01-31 18:04:00
1 1953-08-19 14:00:00 HR (Humedad Relativa) es igual a 100% y Ts <> Td 5.1 - 4.7 2014-01-31 18:04:00
1 1953-08-19 15:00:00 HR (Humedad Relativa) es igual a 100% y Ts <> Td 6.2 - 5.4 2014-01-31 18:04:00
1 1953-08-19 16:00:00 HR (Humedad Relativa) es igual a 100% y Ts <> Td 6.6 - 6.0 2014-01-31 18:04:00
1 1953-08-19 17:00:00 HR (Humedad Relativa) es igual a 100% y Ts <> Td 8.1 - 6.1 2014-01-31 18:04:00
1 1953-08-20 10:00:00 HR (Humedad Relativa) es igual a 100% y Ts <> Td 4.0 - 3.2 2014-01-31 18:24:00
1 1953-08-20 11:00:00 HR (Humedad Relativa) es igual a 100% y Ts <> Td 4.0 - 3.2 2014-01-31 18:24:00
1 1953-08-21 10:00:00 HR (Humedad Relativa) es igual a 100% y Ts <> Td 1.8 - 1.0 2014-01-31 18:59:00
1 1953-08-21 11:00:00 HR (Humedad Relativa) es igual a 100% y Ts <> Td 1.8 - 1.0 2014-01-31 18:59:00
1 1953-08-24 10:00:00 HR (Humedad Relativa) es igual a 100% y Ts <> Td 5.2 - 4.4 2014-02-03 12:38:00
1 1953-08-24 11:00:00 HR (Humedad Relativa) es igual a 100% y Ts <> Td 5.2 - 4.4 2014-02-03 12:38:00
1 1953-08-29 14:00:00 HR (Humedad Relativa) es igual a 100% y Ts <> Td 7.4 - 7.2 2014-02-03 14:43:00
1 1953-08-31 10:00:00 HR (Humedad Relativa) es igual a 100% y Ts <> Td 3.8 - 3.0 2014-02-03 15:55:00
1 1953-08-31 11:00:00 HR (Humedad Relativa) es igual a 100% y Ts <> Td 3.8 - 3.0 2014-02-03 15:55:00
1 1953-09-07 20:00:00 HR (Humedad Relativa) es igual a 100% y Ts <> Td 9.1 - 8.7 2014-02-03 18:25:00
1 1953-09-08 10:00:00 HR (Humedad Relativa) es igual a 100% y Ts <> Td 6.0 - 5.2 2014-02-03 18:54:00
1 1953-09-08 11:00:00 HR (Humedad Relativa) es igual a 100% y Ts <> Td 6.0 - 5.2 2014-02-03 18:54:00
1 1953-09-08 12:00:00 HR (Humedad Relativa) es igual a 100% y Ts <> Td 6.6 - 6.0 2014-02-03 18:54:00
1 1953-09-08 13:00:00 HR (Humedad Relativa) es igual a 100% y Ts <> Td 7.2 - 6.8 2014-02-03 18:54:00
1 1953-09-08 14:00:00 HR (Humedad Relativa) es igual a 100% y Ts <> Td 7.8 - 7.2 2014-02-03 18:54:00
1 1953-09-08 15:00:00 HR (Humedad Relativa) es igual a 100% y Ts <> Td 7.2 - 6.8 2014-02-03 18:54:00
1 1953-09-08 16:00:00 HR (Humedad Relativa) es igual a 100% y Ts <> Td 6.5 - 6.1 2014-02-03 18:54:00
1 1953-09-08 17:00:00 HR (Humedad Relativa) es igual a 100% y Ts <> Td 7.2 - 6.8 2014-02-03 18:54:00
1 1953-09-08 18:00:00 HR (Humedad Relativa) es igual a 100% y Ts <> Td 8.2 - 7.8 2014-02-03 18:54:00
1 1953-09-08 19:00:00 HR (Humedad Relativa) es igual a 100% y Ts <> Td 8.2 - 7.8 2014-02-03 18:54:00
1 1953-09-08 20:00:00 HR (Humedad Relativa) es igual a 100% y Ts <> Td 9.0 - 8.1 2014-02-03 18:54:00
1 1953-09-08 21:00:00 HR (Humedad Relativa) es igual a 100% y Ts <> Td 8.4 - 6.9 2014-02-03 18:54:00
1 1953-09-08 22:00:00 HR (Humedad Relativa) es igual a 100% y Ts <> Td 9.4 - 8.2 2014-02-03 18:54:00
1 1953-09-08 23:00:00 HR (Humedad Relativa) es igual a 100% y Ts <> Td 6.2 - 5.8 2014-02-03 18:54:00
1 1953-09-09 10:00:00 HR (Humedad Relativa) es igual a 100% y Ts <> Td 3.8 - 2.8 2014-02-03 19:55:00
1 1953-09-09 11:00:00 HR (Humedad Relativa) es igual a 100% y Ts <> Td 3.8 - 2.8 2014-02-03 19:55:00
1 1953-09-09 12:00:00 HR (Humedad Relativa) es igual a 100% y Ts <> Td 3.6 - 1.5 2014-02-03 19:55:00
1 1953-09-09 13:00:00 HR (Humedad Relativa) es igual a 100% y Ts <> Td 5.6 - 4.2 2014-02-03 19:55:00
1 1953-09-09 14:00:00 HR (Humedad Relativa) es igual a 100% y Ts <> Td 10.0 - 8.2 2014-02-03 19:55:00
1 1953-09-09 15:00:00 HR (Humedad Relativa) es igual a 100% y Ts <> Td 10.6 - 8.7 2014-02-03 19:55:00
1 1953-09-10 10:00:00 HR (Humedad Relativa) es igual a 100% y Ts <> Td 2.8 - 2.4 2014-02-03 20:11:00
1 1953-09-10 11:00:00 HR (Humedad Relativa) es igual a 100% y Ts <> Td 2.8 - 2.4 2014-02-03 20:11:00
1 1953-09-14 10:00:00 HR (Humedad Relativa) es igual a 100% y Ts <> Td 6.0 - 4.9 2014-02-04 14:09:00
1 1953-09-14 11:00:00 HR (Humedad Relativa) es igual a 100% y Ts <> Td 6.0 - 4.9 2014-02-04 14:09:00
1 1953-09-14 13:00:00 HR (Humedad Relativa) es igual a 100% y Ts <> Td 6.2 - 5.8 2014-02-04 14:10:00
1 1953-09-21 14:00:00 HR (Humedad Relativa) es igual a 100% y Ts <> Td 9.1 - 8.9 2014-02-04 19:03:00
1 1953-09-21 16:00:00 HR (Humedad Relativa) es igual a 100% y Ts <> Td 9.1 - 8.9 2014-02-04 19:03:00
1 1953-09-21 17:00:00 HR (Humedad Relativa) es igual a 100% y Ts <> Td 9.2 - 8.8 2014-02-04 19:03:00
1 1953-09-21 18:00:00 HR (Humedad Relativa) es igual a 100% y Ts <> Td 9.2 - 8.8 2014-02-04 19:03:00
1 1953-09-21 19:00:00 HR (Humedad Relativa) es igual a 100% y Ts <> Td 10.0 - 8.9 2014-02-04 19:03:00
1 1953-09-21 20:00:00 HR (Humedad Relativa) es igual a 100% y Ts <> Td 9.0 - 7.8 2014-02-04 19:03:00
1 1953-09-21 21:00:00 HR (Humedad Relativa) es igual a 100% y Ts <> Td 8.7 - 7.6 2014-02-04 19:03:00
1 1953-09-21 22:00:00 HR (Humedad Relativa) es igual a 100% y Ts <> Td 8.5 - 6.8 2014-02-04 19:03:00
1 1953-09-21 23:00:00 HR (Humedad Relativa) es igual a 100% y Ts <> Td 8.6 - 7.4 2014-02-04 19:04:00
1 1953-09-22 10:00:00 HR (Humedad Relativa) es igual a 100% y Ts <> Td 8.0 - 6.8 2014-02-04 20:23:00
1 1953-09-22 11:00:00 HR (Humedad Relativa) es igual a 100% y Ts <> Td 8.0 - 6.8 2014-02-04 20:23:00
1 1953-09-22 12:00:00 HR (Humedad Relativa) es igual a 100% y Ts <> Td 8.0 - 6.8 2014-02-04 20:24:00
1 1953-09-22 13:00:00 HR (Humedad Relativa) es igual a 100% y Ts <> Td 7.9 - 6.7 2014-02-04 20:23:00
1 1953-09-22 14:00:00 HR (Humedad Relativa) es igual a 100% y Ts <> Td 8.6 - 7.7 2014-02-04 20:23:00
1 1953-09-22 15:00:00 HR (Humedad Relativa) es igual a 100% y Ts <> Td 9.0 - 7.8 2014-02-04 20:23:00
1 1954-07-01 20:00:00 Ts debe ser mayor o igual a Td Ts=2.0 - Td=6.7 2014-01-30 19:14:00
1 1954-07-03 14:00:00 HR (Humedad Relativa) es igual a 100% y Ts <> Td 2.2 - 1.4 2014-01-30 20:00:00
1 1954-07-04 10:00:00 HR (Humedad Relativa) es igual a 100% y Ts <> Td 5.5 - 4.5 2014-01-30 20:10:00
1 1954-07-04 11:00:00 HR (Humedad Relativa) es igual a 100% y Ts <> Td 5.7 - 4.5 2014-01-30 20:10:00
1 1954-07-04 18:00:00 HR (Humedad Relativa) es igual a 100% y Ts <> Td 5.2 - 4.8 2014-01-30 20:11:00
1 1954-07-04 19:00:00 HR (Humedad Relativa) es igual a 100% y Ts <> Td 6.2 - 5.4 2014-01-30 20:11:00
1 1954-07-04 20:00:00 HR (Humedad Relativa) es igual a 100% y Ts <> Td 6.7 - 5.3 2014-01-30 20:11:00
1 1954-07-04 22:00:00 HR (Humedad Relativa) es igual a 100% y Ts <> Td 7.2 - 6.4 2014-01-30 20:11:00
1 1954-07-06 22:00:00 HR (Humedad Relativa) es igual a 100% y Ts <> Td 5.1 - 3.5 2014-01-30 20:38:00
1 1954-07-06 23:00:00 HR (Humedad Relativa) es igual a 100% y Ts <> Td 4.0 - 3.0 2014-01-30 20:38:00
1 1954-07-08 20:00:00 HR (Humedad Relativa) es igual a 100% y Ts <> Td 5.4 - 4.6 2014-01-30 20:54:00
1 1954-07-08 23:00:00 HR (Humedad Relativa) es igual a 100% y Ts <> Td 5.0 - 4.4 2014-01-30 20:54:00
1 1954-07-09 10:00:00 HR (Humedad Relativa) es igual a 100% y Ts <> Td 5.4 - 4.6 2014-01-30 21:38:00
1 1954-07-09 13:00:00 HR (Humedad Relativa) es igual a 100% y Ts <> Td 6.7 - 5.5 2014-01-30 21:38:00
1 1954-07-12 14:00:00 HR (Humedad Relativa) es igual a 100% y Ts <> Td 5.3 - 3.8 2014-01-31 12:59:00
1 1954-07-12 15:00:00 HR (Humedad Relativa) es igual a 100% y Ts <> Td 5.3 - 3.8 2014-01-31 12:59:00
1 1954-07-12 16:00:00 HR (Humedad Relativa) es igual a 100% y Ts <> Td 5.4 - 3.8 2014-01-31 12:59:00
1 1954-07-12 17:00:00 HR (Humedad Relativa) es igual a 100% y Ts <> Td 5.6 - 4.7 2014-01-31 12:59:00
1 1954-07-12 18:00:00 HR (Humedad Relativa) es igual a 100% y Ts <> Td 5.4 - 3.8 2014-01-31 12:59:00
1 1954-07-12 19:00:00 HR (Humedad Relativa) es igual a 100% y Ts <> Td 5.2 - 3.4 2014-01-31 12:59:00
1 1954-07-12 20:00:00 HR (Humedad Relativa) es igual a 100% y Ts <> Td 5.3 - 3.4 2014-01-31 12:59:00
1 1954-07-12 21:00:00 HR (Humedad Relativa) es igual a 100% y Ts <> Td 5.2 - 3.4 2014-01-31 12:59:00
1 1954-07-12 22:00:00 HR (Humedad Relativa) es igual a 100% y Ts <> Td 5.2 - 3.4 2014-01-31 12:59:00
1 1954-07-12 23:00:00 HR (Humedad Relativa) es igual a 100% y Ts <> Td 5.4 - 3.4 2014-01-31 12:59:00
1 1954-07-16 10:00:00 HR (Humedad Relativa) es igual a 100% y Ts <> Td 8.2 - 7.4 2014-01-31 13:56:00
1 1954-07-16 11:00:00 HR (Humedad Relativa) es igual a 100% y Ts <> Td 8.2 - 7.4 2014-01-31 13:56:00
1 1954-07-16 12:00:00 HR (Humedad Relativa) es igual a 100% y Ts <> Td 8.0 - 7.2 2014-01-31 13:56:00
1 1954-07-16 13:00:00 HR (Humedad Relativa) es igual a 100% y Ts <> Td 8.0 - 7.2 2014-01-31 13:57:00
1 1954-07-16 14:00:00 HR (Humedad Relativa) es igual a 100% y Ts <> Td 8.0 - 7.2 2014-01-31 13:57:00
1 1954-07-16 15:00:00 HR (Humedad Relativa) es igual a 100% y Ts <> Td 8.3 - 7.3 2014-01-31 13:57:00
1 1954-07-16 16:00:00 HR (Humedad Relativa) es igual a 100% y Ts <> Td 8.2 - 7.2 2014-01-31 13:57:00
1 1954-07-16 17:00:00 HR (Humedad Relativa) es igual a 100% y Ts <> Td 8.2 - 7.2 2014-01-31 13:57:00
1 1954-07-16 18:00:00 HR (Humedad Relativa) es igual a 100% y Ts <> Td 7.7 - 6.4 2014-01-31 13:57:00
1 1954-07-16 19:00:00 HR (Humedad Relativa) es igual a 100% y Ts <> Td 8.0 - 6.0 2014-01-31 13:57:00
1 1954-07-16 20:00:00 HR (Humedad Relativa) es igual a 100% y Ts <> Td 8.2 - 6.0 2014-01-31 13:57:00
1 1954-07-16 21:00:00 HR (Humedad Relativa) es igual a 100% y Ts <> Td 7.2 - 5.8 2014-01-31 13:57:00
1 1954-07-16 22:00:00 HR (Humedad Relativa) es igual a 100% y Ts <> Td 6.5 - 5.5 2014-01-31 13:57:00
1 1954-07-16 23:00:00 HR (Humedad Relativa) es igual a 100% y Ts <> Td 6.4 - 6.0 2014-01-31 13:57:00
1 1954-07-17 10:00:00 HR (Humedad Relativa) es igual a 100% y Ts <> Td 4.8 - 4.0 2014-01-31 14:05:00
1 1954-07-17 11:00:00 HR (Humedad Relativa) es igual a 100% y Ts <> Td 4.9 - 4.1 2014-01-31 14:05:00
1 1954-07-17 12:00:00 HR (Humedad Relativa) es igual a 100% y Ts <> Td 4.8 - 4.0 2014-01-31 14:05:00
1 1954-07-17 13:00:00 HR (Humedad Relativa) es igual a 100% y Ts <> Td 4.8 - 4.0 2014-01-31 14:06:00
1 1954-07-17 15:00:00 HR (Humedad Relativa) es igual a 100% y Ts <> Td 6.0 - 5.0 2014-01-31 14:06:00
1 1954-07-17 16:00:00 HR (Humedad Relativa) es igual a 100% y Ts <> Td 7.0 - 5.0 2014-01-31 14:06:00
1 1954-07-19 10:00:00 HR (Humedad Relativa) es igual a 100% y Ts <> Td 6.2 - 5.4 2014-01-31 14:21:00
1 1954-07-19 11:00:00 HR (Humedad Relativa) es igual a 100% y Ts <> Td 6.0 - 5.0 2014-01-31 14:21:00
1 1954-07-19 12:00:00 HR (Humedad Relativa) es igual a 100% y Ts <> Td 6.2 - 5.4 2014-01-31 14:21:00
1 1954-07-19 14:00:00 HR (Humedad Relativa) es igual a 100% y Ts <> Td 6.8 - 6.6 2014-01-31 14:21:00
1 1954-07-19 15:00:00 HR (Humedad Relativa) es igual a 100% y Ts <> Td 5.2 - 4.8 2014-01-31 14:21:00
1 1954-07-19 17:00:00 HR (Humedad Relativa) es igual a 100% y Ts <> Td 6.7 - 5.2 2014-01-31 14:21:00
1 1954-07-19 18:00:00 HR (Humedad Relativa) es igual a 100% y Ts <> Td 6.7 - 5.7 2014-01-31 14:21:00
1 1954-07-19 19:00:00 HR (Humedad Relativa) es igual a 100% y Ts <> Td 7.7 - 6.3 2014-01-31 14:22:00
1 1954-07-19 20:00:00 HR (Humedad Relativa) es igual a 100% y Ts <> Td 7.6 - 6.6 2014-01-31 14:22:00
1 1954-07-20 10:00:00 HR (Humedad Relativa) es igual a 100% y Ts <> Td 3.7 - 3.5 2014-01-31 15:22:00
1 1954-07-20 11:00:00 HR (Humedad Relativa) es igual a 100% y Ts <> Td 3.8 - 3.6 2014-01-31 15:22:00
1 1954-07-20 12:00:00 HR (Humedad Relativa) es igual a 100% y Ts <> Td 2.2 - 0.6 2014-01-31 15:22:00
1 1954-07-20 13:00:00 HR (Humedad Relativa) es igual a 100% y Ts <> Td 2.0 - 1.0 2014-01-31 15:22:00
1 1954-07-20 14:00:00 HR (Humedad Relativa) es igual a 100% y Ts <> Td 3.4 - 1.1 2014-01-31 15:22:00
1 1954-07-20 15:00:00 HR (Humedad Relativa) es igual a 100% y Ts <> Td 7.0 - 3.5 2014-01-31 15:22:00
1 1954-07-20 16:00:00 HR (Humedad Relativa) es igual a 100% y Ts <> Td 8.2 - 5.8 2014-01-31 15:23:00
1 1954-07-21 13:00:00 HR (Humedad Relativa) es igual a 100% y Ts <> Td 1.6 - 0.2 2014-01-31 15:30:00
1 1954-07-21 14:00:00 HR (Humedad Relativa) es igual a 100% y Ts <> Td 4.0 - 1.6 2014-01-31 15:30:00
1 1954-07-21 15:00:00 HR (Humedad Relativa) es igual a 100% y Ts <> Td 5.8 - 4.0 2014-01-31 15:30:00
1 1954-07-21 16:00:00 HR (Humedad Relativa) es igual a 100% y Ts <> Td 7.7 - 5.0 2014-01-31 15:30:00
1 1954-07-22 10:00:00 HR (Humedad Relativa) es igual a 100% y Ts <> Td 4.2 - 3.5 2014-01-31 15:42:00
1 1954-07-22 11:00:00 HR (Humedad Relativa) es igual a 100% y Ts <> Td 4.2 - 3.5 2014-01-31 15:42:00
1 1954-07-22 12:00:00 HR (Humedad Relativa) es igual a 100% y Ts <> Td 5.4 - 4.6 2014-01-31 15:42:00
1 1954-07-22 13:00:00 HR (Humedad Relativa) es igual a 100% y Ts <> Td 5.4 - 4.7 2014-01-31 15:42:00
1 1954-07-22 14:00:00 HR (Humedad Relativa) es igual a 100% y Ts <> Td 5.4 - 4.7 2014-01-31 15:42:00
1 1954-07-22 15:00:00 HR (Humedad Relativa) es igual a 100% y Ts <> Td 5.9 - 4.3 2014-01-31 15:42:00
1 1954-07-22 16:00:00 HR (Humedad Relativa) es igual a 100% y Ts <> Td 7.2 - 5.0 2014-01-31 15:42:00
1 1954-07-22 19:00:00 HR (Humedad Relativa) es igual a 100% y Ts <> Td 6.4 - 5.5 2014-01-31 15:42:00
1 1954-07-22 20:00:00 HR (Humedad Relativa) es igual a 100% y Ts <> Td 6.2 - 5.6 2014-01-31 15:42:00
1 1954-07-22 21:00:00 HR (Humedad Relativa) es igual a 100% y Ts <> Td 5.9 - 5.5 2014-01-31 15:42:00
1 1954-07-22 22:00:00 HR (Humedad Relativa) es igual a 100% y Ts <> Td 5.9 - 5.5 2014-01-31 15:42:00
1 1954-07-22 23:00:00 HR (Humedad Relativa) es igual a 100% y Ts <> Td 5.3 - 4.3 2014-01-31 15:42:00
1 1954-07-23 12:00:00 HR (Humedad Relativa) es igual a 100% y Ts <> Td -2.2 - -3.1 2014-01-31 15:50:00
1 1954-07-23 14:00:00 HR (Humedad Relativa) es igual a 100% y Ts <> Td 0.7 - 0.1 2014-01-31 15:50:00
1 1954-07-23 15:00:00 HR (Humedad Relativa) es igual a 100% y Ts <> Td 4.0 - 1.6 2014-01-31 15:50:00
1 1954-07-23 23:00:00 HR (Humedad Relativa) es igual a 100% y Ts <> Td 3.6 - 2.9 2014-01-31 15:50:00
1 1954-07-26 12:00:00 HR (Humedad Relativa) es igual a 100% y Ts <> Td 7.2 - 6.4 2014-01-31 18:09:00
1 1954-07-26 13:00:00 HR (Humedad Relativa) es igual a 100% y Ts <> Td 7.3 - 6.4 2014-01-31 18:10:00
1 1954-07-26 14:00:00 HR (Humedad Relativa) es igual a 100% y Ts <> Td 8.2 - 7.4 2014-01-31 18:10:00
1 1954-07-26 15:00:00 HR (Humedad Relativa) es igual a 100% y Ts <> Td 8.8 - 7.3 2014-01-31 18:10:00
1 1954-07-26 16:00:00 HR (Humedad Relativa) es igual a 100% y Ts <> Td 9.6 - 8.5 2014-01-31 18:10:00
1 1954-07-26 17:00:00 HR (Humedad Relativa) es igual a 100% y Ts <> Td 10.5 - 9.6 2014-01-31 18:10:00
1 1954-07-26 18:00:00 HR (Humedad Relativa) es igual a 100% y Ts <> Td 12.1 - 9.4 2014-01-31 18:10:00
1 1954-07-26 19:00:00 HR (Humedad Relativa) es igual a 100% y Ts <> Td 13.4 - 10.2 2014-01-31 18:10:00
1 1954-07-26 20:00:00 HR (Humedad Relativa) es igual a 100% y Ts <> Td 14.0 - 11.4 2014-01-31 18:10:00
1 1954-07-26 21:00:00 HR (Humedad Relativa) es igual a 100% y Ts <> Td 13.0 - 11.2 2014-01-31 18:10:00
1 1954-07-26 22:00:00 HR (Humedad Relativa) es igual a 100% y Ts <> Td 11.4 - 9.2 2014-01-31 18:10:00
1 1954-07-26 23:00:00 HR (Humedad Relativa) es igual a 100% y Ts <> Td 10.0 - 8.2 2014-01-31 18:10:00
1 1954-07-27 10:00:00 HR (Humedad Relativa) es igual a 100% y Ts <> Td 1.4 - 0.6 2014-01-31 18:25:00
1 1954-07-27 11:00:00 HR (Humedad Relativa) es igual a 100% y Ts <> Td 1.0 - 0.0 2014-01-31 18:25:00
1 1954-07-27 12:00:00 HR (Humedad Relativa) es igual a 100% y Ts <> Td 1.0 - 0.0 2014-01-31 18:25:00
1 1954-07-27 13:00:00 HR (Humedad Relativa) es igual a 100% y Ts <> Td 2.0 - 0.0 2014-01-31 18:25:00
1 1954-07-27 14:00:00 HR (Humedad Relativa) es igual a 100% y Ts <> Td 7.5 - 5.3 2014-01-31 18:25:00
1 1954-07-27 15:00:00 HR (Humedad Relativa) es igual a 100% y Ts <> Td 9.2 - 7.3 2014-01-31 18:25:00
1 1954-07-27 16:00:00 HR (Humedad Relativa) es igual a 100% y Ts <> Td 10.8 - 9.0 2014-01-31 18:25:00
1 1954-07-27 17:00:00 HR (Humedad Relativa) es igual a 100% y Ts <> Td 11.2 - 9.1 2014-01-31 18:25:00
1 1954-07-27 18:00:00 HR (Humedad Relativa) es igual a 100% y Ts <> Td 11.6 - 8.7 2014-01-31 18:25:00
1 1954-07-27 19:00:00 HR (Humedad Relativa) es igual a 100% y Ts <> Td 11.0 - 9.3 2014-01-31 18:25:00
1 1954-07-27 20:00:00 HR (Humedad Relativa) es igual a 100% y Ts <> Td 11.0 - 9.3 2014-01-31 18:25:00
1 1954-07-27 21:00:00 HR (Humedad Relativa) es igual a 100% y Ts <> Td 9.0 - 7.2 2014-01-31 18:25:00
1 1954-07-27 22:00:00 HR (Humedad Relativa) es igual a 100% y Ts <> Td 9.0 - 8.4 2014-01-31 18:25:00
1 1954-07-28 10:00:00 HR (Humedad Relativa) es igual a 100% y Ts <> Td 8.1 - 7.3 2014-01-31 18:35:00
1 1954-07-28 11:00:00 HR (Humedad Relativa) es igual a 100% y Ts <> Td 8.1 - 7.3 2014-01-31 18:35:00
1 1954-07-28 14:00:00 HR (Humedad Relativa) es igual a 100% y Ts <> Td 8.0 - 7.3 2014-01-31 18:35:00
1 1954-07-28 15:00:00 HR (Humedad Relativa) es igual a 100% y Ts <> Td 8.5 - 7.5 2014-01-31 18:35:00
1 1954-07-28 16:00:00 HR (Humedad Relativa) es igual a 100% y Ts <> Td 8.5 - 7.5 2014-01-31 18:35:00
1 1954-07-28 17:00:00 HR (Humedad Relativa) es igual a 100% y Ts <> Td 8.0 - 7.0 2014-01-31 18:35:00
1 1954-07-28 19:00:00 HR (Humedad Relativa) es igual a 100% y Ts <> Td 7.8 - 7.5 2014-01-31 18:35:00
1 1954-07-28 20:00:00 HR (Humedad Relativa) es igual a 100% y Ts <> Td 7.5 - 6.5 2014-01-31 18:35:00
1 1954-07-28 21:00:00 HR (Humedad Relativa) es igual a 100% y Ts <> Td 7.4 - 6.6 2014-01-31 18:35:00
1 1954-07-28 22:00:00 HR (Humedad Relativa) es igual a 100% y Ts <> Td 6.8 - 6.0 2014-01-31 18:35:00
1 1954-07-28 23:00:00 HR (Humedad Relativa) es igual a 100% y Ts <> Td 7.0 - 6.5 2014-01-31 18:35:00
1 1954-07-29 10:00:00 HR (Humedad Relativa) es igual a 100% y Ts <> Td 6.5 - 5.5 2014-01-31 19:02:00
1 1954-07-29 11:00:00 HR (Humedad Relativa) es igual a 100% y Ts <> Td 6.2 - 5.5 2014-01-31 19:02:00
1 1954-07-29 12:00:00 HR (Humedad Relativa) es igual a 100% y Ts <> Td 7.3 - 6.5 2014-01-31 19:02:00
1 1954-07-29 13:00:00 HR (Humedad Relativa) es igual a 100% y Ts <> Td 7.4 - 6.2 2014-01-31 19:02:00
1 1954-07-29 14:00:00 HR (Humedad Relativa) es igual a 100% y Ts <> Td 8.0 - 6.2 2014-01-31 19:02:00
1 1954-07-29 15:00:00 HR (Humedad Relativa) es igual a 100% y Ts <> Td 8.2 - 7.5 2014-01-31 19:02:00
1 1954-07-29 16:00:00 HR (Humedad Relativa) es igual a 100% y Ts <> Td 8.2 - 7.0 2014-01-31 19:02:00
1 1954-07-29 17:00:00 HR (Humedad Relativa) es igual a 100% y Ts <> Td 9.2 - 8.3 2014-01-31 19:02:00
1 1954-07-29 18:00:00 HR (Humedad Relativa) es igual a 100% y Ts <> Td 8.8 - 8.3 2014-01-31 19:02:00
1 1954-07-29 19:00:00 HR (Humedad Relativa) es igual a 100% y Ts <> Td 8.6 - 8.2 2014-01-31 19:02:00
1 1954-07-29 20:00:00 HR (Humedad Relativa) es igual a 100% y Ts <> Td 8.4 - 8.0 2014-01-31 19:02:00
1 1954-07-29 21:00:00 HR (Humedad Relativa) es igual a 100% y Ts <> Td 8.3 - 7.8 2014-01-31 19:02:00
1 1954-07-29 22:00:00 HR (Humedad Relativa) es igual a 100% y Ts <> Td 8.0 - 7.0 2014-01-31 19:02:00
1 1954-07-29 23:00:00 HR (Humedad Relativa) es igual a 100% y Ts <> Td 8.0 - 7.0 2014-01-31 19:02:00
1 1954-07-30 17:00:00 HR (Humedad Relativa) es igual a 100% y Ts <> Td 6.4 - 6.0 2014-01-31 19:16:00
1 1954-07-30 19:00:00 HR (Humedad Relativa) es igual a 100% y Ts <> Td 7.0 - 6.0 2014-01-31 19:16:00
1 1954-07-30 20:00:00 HR (Humedad Relativa) es igual a 100% y Ts <> Td 7.5 - 7.0 2014-01-31 19:16:00
1 1954-07-30 22:00:00 HR (Humedad Relativa) es igual a 100% y Ts <> Td 7.3 - 6.8 2014-01-31 19:16:00
1 1954-07-31 11:00:00 HR (Humedad Relativa) es igual a 100% y Ts <> Td 5.0 - 4.6 2014-02-26 13:19:00
1 1954-07-31 13:00:00 HR (Humedad Relativa) es igual a 100% y Ts <> Td 5.5 - 5.0 2014-02-26 13:20:00
1 1954-07-31 14:00:00 HR (Humedad Relativa) es igual a 100% y Ts <> Td 6.0 - 5.0 2014-02-26 13:20:00
1 1954-07-31 15:00:00 HR (Humedad Relativa) es igual a 100% y Ts <> Td 6.5 - 6.0 2014-02-26 13:20:00
1 1954-07-31 16:00:00 HR (Humedad Relativa) es igual a 100% y Ts <> Td 8.5 - 7.3 2014-02-26 13:20:00
1 1954-07-31 17:00:00 HR (Humedad Relativa) es igual a 100% y Ts <> Td 9.8 - 6.7 2014-02-26 13:20:00
1 1954-08-01 10:00:00 HR (Humedad Relativa) es igual a 100% y Ts <> Td 4.8 - 4.0 2014-02-26 13:42:00
1 1954-08-01 11:00:00 HR (Humedad Relativa) es igual a 100% y Ts <> Td 4.6 - 3.8 2014-02-26 13:42:00
1 1954-08-01 12:00:00 HR (Humedad Relativa) es igual a 100% y Ts <> Td 3.6 - 1.5 2014-02-26 13:42:00
1 1954-08-02 10:00:00 HR (Humedad Relativa) es igual a 100% y Ts <> Td 3.7 - 2.1 2014-02-26 14:08:00
1 1954-08-02 11:00:00 HR (Humedad Relativa) es igual a 100% y Ts <> Td 3.7 - 2.1 2014-02-26 14:08:00
1 1954-08-02 12:00:00 HR (Humedad Relativa) es igual a 100% y Ts <> Td 3.4 - 2.6 2014-02-26 14:08:00
1 1954-08-02 13:00:00 HR (Humedad Relativa) es igual a 100% y Ts <> Td 3.4 - 2.5 2014-02-26 14:08:00
1 1954-08-02 14:00:00 HR (Humedad Relativa) es igual a 100% y Ts <> Td 4.4 - 3.1 2014-02-26 14:08:00
1 1954-08-02 15:00:00 HR (Humedad Relativa) es igual a 100% y Ts <> Td 5.5 - 4.1 2014-02-26 14:08:00
1 1954-08-02 16:00:00 HR (Humedad Relativa) es igual a 100% y Ts <> Td 6.3 - 3.6 2014-02-26 14:08:00
1 1954-08-02 17:00:00 HR (Humedad Relativa) es igual a 100% y Ts <> Td 6.8 - 3.6 2014-02-26 14:08:00
1 1954-08-02 18:00:00 HR (Humedad Relativa) es igual a 100% y Ts <> Td 7.8 - 3.3 2014-02-26 14:08:00
1 1954-08-02 19:00:00 HR (Humedad Relativa) es igual a 100% y Ts <> Td 8.6 - 4.2 2014-02-26 14:08:00
1 1954-08-02 20:00:00 HR (Humedad Relativa) es igual a 100% y Ts <> Td 8.3 - 4.4 2014-02-26 14:08:00
1 1954-08-02 21:00:00 HR (Humedad Relativa) es igual a 100% y Ts <> Td 8.6 - 3.6 2014-02-26 14:08:00
1 1954-08-02 22:00:00 HR (Humedad Relativa) es igual a 100% y Ts <> Td 7.6 - 5.6 2014-02-26 14:08:00
1 1954-08-03 10:00:00 HR (Humedad Relativa) es igual a 100% y Ts <> Td 2.7 - 1.6 2014-02-26 14:50:00
1 1954-08-03 11:00:00 HR (Humedad Relativa) es igual a 100% y Ts <> Td 2.1 - 1.1 2014-02-26 14:50:00
1 1954-08-03 12:00:00 HR (Humedad Relativa) es igual a 100% y Ts <> Td 1.0 - 0.4 2014-02-26 14:50:00
1 1954-08-03 13:00:00 HR (Humedad Relativa) es igual a 100% y Ts <> Td 1.2 - 0.2 2014-02-26 14:50:00
1 1954-08-03 14:00:00 HR (Humedad Relativa) es igual a 100% y Ts <> Td 5.8 - 2.6 2014-02-26 14:50:00
1 1954-08-04 13:00:00 Ts debe ser mayor o igual a Td Ts=-1.2 - Td=1.0 2014-02-26 17:19:00
1 1954-08-08 18:00:00 HR (Humedad Relativa) es igual a 100% y Ts <> Td 8.1 - 5.4 2014-02-26 18:56:00
1 1954-08-08 19:00:00 HR (Humedad Relativa) es igual a 100% y Ts <> Td 6.1 - 4.3 2014-02-26 18:56:00
1 1954-08-08 20:00:00 HR (Humedad Relativa) es igual a 100% y Ts <> Td 6.1 - 4.7 2014-02-26 18:56:00
1 1954-08-08 21:00:00 HR (Humedad Relativa) es igual a 100% y Ts <> Td 5.6 - 4.7 2014-02-26 18:56:00
1 1954-08-08 22:00:00 HR (Humedad Relativa) es igual a 100% y Ts <> Td 6.5 - 4.7 2014-02-26 18:56:00
1 1954-08-08 23:00:00 HR (Humedad Relativa) es igual a 100% y Ts <> Td 5.4 - 4.6 2014-02-26 18:56:00
1 1954-08-09 14:00:00 HR (Humedad Relativa) es igual a 100% y Ts <> Td 2.2 - 1.7 2014-02-26 19:54:00
1 1954-08-09 15:00:00 HR (Humedad Relativa) es igual a 100% y Ts <> Td 5.3 - 0.7 2014-02-26 19:54:00
1 1954-08-10 12:00:00 HR (Humedad Relativa) es igual a 100% y Ts <> Td 0.5 - -0.3 2014-02-26 20:21:00
1 1954-08-10 13:00:00 HR (Humedad Relativa) es igual a 100% y Ts <> Td 2.2 - 0.6 2014-02-26 20:22:00
1 1954-08-11 10:00:00 HR (Humedad Relativa) es igual a 100% y Ts <> Td 6.5 - 5.3 2014-02-27 12:43:00
1 1954-08-11 11:00:00 HR (Humedad Relativa) es igual a 100% y Ts <> Td 6.5 - 5.3 2014-02-27 12:43:00
1 1954-08-11 12:00:00 HR (Humedad Relativa) es igual a 100% y Ts <> Td 5.0 - 4.6 2014-02-27 12:43:00
1 1954-08-11 13:00:00 HR (Humedad Relativa) es igual a 100% y Ts <> Td 5.0 - 4.6 2014-02-27 12:44:00
1 1954-08-11 14:00:00 HR (Humedad Relativa) es igual a 100% y Ts <> Td 6.8 - 3.5 2014-02-27 12:44:00
1 1954-08-11 15:00:00 HR (Humedad Relativa) es igual a 100% y Ts <> Td 7.2 - 3.1 2014-02-27 12:44:00
1 1954-08-11 16:00:00 HR (Humedad Relativa) es igual a 100% y Ts <> Td 7.8 - 3.7 2014-02-27 12:44:00
1 1954-08-11 17:00:00 HR (Humedad Relativa) es igual a 100% y Ts <> Td 8.0 - 4.4 2014-02-27 12:44:00
1 1954-08-11 18:00:00 HR (Humedad Relativa) es igual a 100% y Ts <> Td 7.8 - 5.6 2014-02-27 12:44:00
1 1954-08-11 19:00:00 HR (Humedad Relativa) es igual a 100% y Ts <> Td 7.7 - 6.0 2014-02-27 12:44:00
1 1954-08-11 20:00:00 HR (Humedad Relativa) es igual a 100% y Ts <> Td 7.7 - 4.9 2014-02-27 12:44:00
1 1954-08-11 21:00:00 HR (Humedad Relativa) es igual a 100% y Ts <> Td 7.4 - 5.3 2014-02-27 12:44:00
1 1954-08-11 22:00:00 HR (Humedad Relativa) es igual a 100% y Ts <> Td 7.1 - 6.5 2014-02-27 12:44:00
1 1954-08-12 10:00:00 HR (Humedad Relativa) es igual a 100% y Ts <> Td 6.7 - 6.3 2014-02-27 13:02:00
1 1954-08-12 11:00:00 HR (Humedad Relativa) es igual a 100% y Ts <> Td 6.7 - 6.1 2014-02-27 13:02:00
1 1954-08-12 12:00:00 HR (Humedad Relativa) es igual a 100% y Ts <> Td 6.8 - 6.6 2014-02-27 13:02:00
1 1954-08-12 13:00:00 HR (Humedad Relativa) es igual a 100% y Ts <> Td 7.2 - 6.8 2014-02-27 13:02:00
1 1954-08-12 14:00:00 HR (Humedad Relativa) es igual a 100% y Ts <> Td 7.6 - 7.0 2014-02-27 13:02:00
1 1954-08-12 16:00:00 HR (Humedad Relativa) es igual a 100% y Ts <> Td 8.5 - 8.1 2014-02-27 13:02:00
1 1954-08-12 17:00:00 HR (Humedad Relativa) es igual a 100% y Ts <> Td 8.8 - 8.4 2014-02-27 13:02:00
1 1954-08-12 18:00:00 HR (Humedad Relativa) es igual a 100% y Ts <> Td 9.4 - 9.0 2014-02-27 13:02:00
1 1954-08-12 19:00:00 HR (Humedad Relativa) es igual a 100% y Ts <> Td 9.2 - 8.8 2014-02-27 13:02:00
1 1954-08-12 20:00:00 HR (Humedad Relativa) es igual a 100% y Ts <> Td 9.6 - 9.0 2014-02-27 13:02:00
1 1954-08-12 21:00:00 HR (Humedad Relativa) es igual a 100% y Ts <> Td 9.2 - 8.8 2014-02-27 13:03:00
1 1954-08-12 22:00:00 HR (Humedad Relativa) es igual a 100% y Ts <> Td 10.2 - 9.8 2014-02-27 13:03:00
1 1954-08-12 23:00:00 HR (Humedad Relativa) es igual a 100% y Ts <> Td 9.5 - 8.9 2014-02-27 13:03:00
1 1954-08-13 10:00:00 HR (Humedad Relativa) es igual a 100% y Ts <> Td 10.1 - 9.6 2014-02-27 13:19:00
1 1954-08-13 11:00:00 HR (Humedad Relativa) es igual a 100% y Ts <> Td 10.0 - 9.5 2014-02-27 13:19:00
1 1954-08-13 12:00:00 HR (Humedad Relativa) es igual a 100% y Ts <> Td 10.2 - 9.8 2014-02-27 13:19:00
1 1954-08-13 13:00:00 HR (Humedad Relativa) es igual a 100% y Ts <> Td 10.2 - 9.8 2014-02-27 13:19:00
1 1954-08-13 15:00:00 HR (Humedad Relativa) es igual a 100% y Ts <> Td 11.2 - 10.6 2014-02-27 13:19:00
1 1954-08-13 16:00:00 HR (Humedad Relativa) es igual a 100% y Ts <> Td 11.2 - 10.3 2014-02-27 13:19:00
1 1954-08-13 17:00:00 HR (Humedad Relativa) es igual a 100% y Ts <> Td 11.2 - 10.2 2014-02-27 13:19:00
1 1954-08-13 18:00:00 HR (Humedad Relativa) es igual a 100% y Ts <> Td 11.4 - 11.0 2014-02-27 13:19:00
1 1954-08-13 19:00:00 HR (Humedad Relativa) es igual a 100% y Ts <> Td 11.4 - 11.0 2014-02-27 13:19:00
1 1954-08-13 21:00:00 HR (Humedad Relativa) es igual a 100% y Ts <> Td 12.4 - 12.0 2014-02-27 13:19:00
1 1954-08-13 22:00:00 HR (Humedad Relativa) es igual a 100% y Ts <> Td 12.4 - 11.7 2014-02-27 13:19:00
1 1954-08-13 23:00:00 HR (Humedad Relativa) es igual a 100% y Ts <> Td 12.3 - 11.7 2014-02-27 13:19:00
1 1954-08-14 13:00:00 HR (Humedad Relativa) es igual a 100% y Ts <> Td 10.8 - 10.5 2014-02-27 13:35:00
1 1954-08-14 14:00:00 HR (Humedad Relativa) es igual a 100% y Ts <> Td 10.8 - 10.0 2014-02-27 13:35:00
1 1954-08-14 15:00:00 HR (Humedad Relativa) es igual a 100% y Ts <> Td 10.8 - 9.4 2014-02-27 13:35:00
1 1954-08-14 16:00:00 HR (Humedad Relativa) es igual a 100% y Ts <> Td 12.0 - 9.3 2014-02-27 13:35:00
1 1954-08-14 17:00:00 HR (Humedad Relativa) es igual a 100% y Ts <> Td 12.0 - 9.3 2014-02-27 13:35:00
1 1954-08-14 18:00:00 HR (Humedad Relativa) es igual a 100% y Ts <> Td 13.9 - 10.8 2014-02-27 13:35:00
1 1954-08-14 19:00:00 HR (Humedad Relativa) es igual a 100% y Ts <> Td 14.7 - 10.9 2014-02-27 13:35:00
1 1954-08-14 20:00:00 HR (Humedad Relativa) es igual a 100% y Ts <> Td 14.6 - 11.2 2014-02-27 13:35:00
1 1954-08-14 23:00:00 HR (Humedad Relativa) es igual a 100% y Ts <> Td 12.9 - 11.2 2014-02-27 13:35:00
1 1954-08-15 10:00:00 HR (Humedad Relativa) es igual a 100% y Ts <> Td 10.8 - 10.2 2014-02-27 13:46:00
1 1954-08-15 11:00:00 HR (Humedad Relativa) es igual a 100% y Ts <> Td 11.0 - 10.2 2014-02-27 13:46:00
1 1954-08-15 13:00:00 HR (Humedad Relativa) es igual a 100% y Ts <> Td 12.1 - 11.2 2014-02-27 13:46:00
1 1954-08-15 14:00:00 HR (Humedad Relativa) es igual a 100% y Ts <> Td 12.6 - 11.2 2014-02-27 13:46:00
1 1954-08-15 15:00:00 HR (Humedad Relativa) es igual a 100% y Ts <> Td 12.8 - 11.8 2014-02-27 13:46:00
1 1954-08-15 16:00:00 HR (Humedad Relativa) es igual a 100% y Ts <> Td 13.5 - 12.3 2014-02-27 13:47:00
1 1954-08-15 17:00:00 HR (Humedad Relativa) es igual a 100% y Ts <> Td 13.2 - 12.4 2014-02-27 13:47:00
1 1954-08-15 19:00:00 HR (Humedad Relativa) es igual a 100% y Ts <> Td 13.6 - 12.8 2014-02-27 13:47:00
1 1954-08-15 20:00:00 HR (Humedad Relativa) es igual a 100% y Ts <> Td 14.5 - 12.8 2014-02-27 13:47:00
1 1954-08-15 21:00:00 HR (Humedad Relativa) es igual a 100% y Ts <> Td 13.9 - 12.5 2014-02-27 13:47:00
1 1954-08-15 22:00:00 HR (Humedad Relativa) es igual a 100% y Ts <> Td 13.4 - 11.4 2014-02-27 13:47:00
1 1954-08-15 23:00:00 HR (Humedad Relativa) es igual a 100% y Ts <> Td 12.4 - 11.9 2014-02-27 13:47:00
1 1954-08-16 10:00:00 HR (Humedad Relativa) es igual a 100% y Ts <> Td 7.7 - 7.1 2014-02-27 14:32:00
1 1954-08-16 11:00:00 HR (Humedad Relativa) es igual a 100% y Ts <> Td 7.6 - 7.0 2014-02-27 14:33:00
1 1954-08-16 14:00:00 HR (Humedad Relativa) es igual a 100% y Ts <> Td 5.2 - 4.8 2014-02-27 14:33:00
1 1954-08-17 16:00:00 HR (Humedad Relativa) es igual a 100% y Ts <> Td 4.2 - 3.8 2014-02-27 15:46:00
1 1954-08-17 17:00:00 HR (Humedad Relativa) es igual a 100% y Ts <> Td 4.3 - 4.1 2014-02-27 15:46:00
1 1954-08-17 18:00:00 HR (Humedad Relativa) es igual a 100% y Ts <> Td 5.2 - 4.4 2014-02-27 15:46:00
1 1954-08-17 19:00:00 HR (Humedad Relativa) es igual a 100% y Ts <> Td 5.7 - 4.5 2014-02-27 15:46:00
1 1954-08-17 20:00:00 HR (Humedad Relativa) es igual a 100% y Ts <> Td 6.5 - 3.6 2014-02-27 15:46:00
1 1954-08-17 21:00:00 HR (Humedad Relativa) es igual a 100% y Ts <> Td 5.9 - 4.1 2014-02-27 15:46:00
1 1954-08-17 22:00:00 HR (Humedad Relativa) es igual a 100% y Ts <> Td 6.4 - 3.8 2014-02-27 15:46:00
1 1954-08-17 23:00:00 HR (Humedad Relativa) es igual a 100% y Ts <> Td 5.6 - 4.8 2014-02-27 15:46:00
1 1954-08-18 14:00:00 HR (Humedad Relativa) es igual a 100% y Ts <> Td 2.1 - 1.5 2014-02-27 18:02:00
1 1954-08-18 15:00:00 HR (Humedad Relativa) es igual a 100% y Ts <> Td 3.3 - 2.3 2014-02-27 18:02:00
1 1954-08-18 16:00:00 HR (Humedad Relativa) es igual a 100% y Ts <> Td 3.6 - 2.4 2014-02-27 18:02:00
1 1954-08-18 17:00:00 HR (Humedad Relativa) es igual a 100% y Ts <> Td 4.5 - 3.1 2014-02-27 18:02:00
1 1954-08-18 18:00:00 HR (Humedad Relativa) es igual a 100% y Ts <> Td 5.2 - 4.4 2014-02-27 18:02:00
1 1954-08-18 19:00:00 HR (Humedad Relativa) es igual a 100% y Ts <> Td 5.6 - 3.1 2014-02-27 18:02:00
1 1954-08-18 20:00:00 HR (Humedad Relativa) es igual a 100% y Ts <> Td 6.0 - 3.5 2014-02-27 18:02:00
1 1954-08-18 21:00:00 HR (Humedad Relativa) es igual a 100% y Ts <> Td 6.8 - 4.0 2014-02-27 18:02:00
1 1954-08-18 22:00:00 HR (Humedad Relativa) es igual a 100% y Ts <> Td 6.3 - 2.7 2014-02-27 18:02:00
1 1954-08-18 23:00:00 HR (Humedad Relativa) es igual a 100% y Ts <> Td 4.8 - 2.4 2014-02-27 18:02:00
1 1954-08-19 14:00:00 HR (Humedad Relativa) es igual a 100% y Ts <> Td 3.8 - 3.4 2014-02-27 18:53:00
1 1954-08-19 15:00:00 HR (Humedad Relativa) es igual a 100% y Ts <> Td 5.1 - 4.3 2014-02-27 18:53:00
1 1954-08-19 16:00:00 HR (Humedad Relativa) es igual a 100% y Ts <> Td 5.4 - 4.2 2014-02-27 18:53:00
1 1954-08-19 22:00:00 HR (Humedad Relativa) es igual a 100% y Ts <> Td 6.6 - 3.2 2014-02-27 18:53:00
1 1954-08-19 23:00:00 HR (Humedad Relativa) es igual a 100% y Ts <> Td 5.4 - 2.8 2014-02-27 18:53:00
1 1954-08-20 15:00:00 HR (Humedad Relativa) es igual a 100% y Ts <> Td 5.8 - 2.3 2014-02-27 19:03:00
1 1954-08-23 10:00:00 HR (Humedad Relativa) es igual a 100% y Ts <> Td 7.5 - 6.9 2014-02-27 19:41:00
1 1954-08-23 11:00:00 HR (Humedad Relativa) es igual a 100% y Ts <> Td 7.5 - 6.9 2014-02-27 19:41:00
1 1954-08-23 14:00:00 HR (Humedad Relativa) es igual a 100% y Ts <> Td 9.4 - 9.0 2014-02-27 19:41:00
1 1954-08-23 15:00:00 HR (Humedad Relativa) es igual a 100% y Ts <> Td 10.8 - 10.0 2014-02-27 19:41:00
1 1954-08-23 16:00:00 HR (Humedad Relativa) es igual a 100% y Ts <> Td 12.4 - 8.8 2014-02-27 19:41:00
1 1954-08-24 10:00:00 HR (Humedad Relativa) es igual a 100% y Ts <> Td 4.2 - 3.8 2014-02-27 20:04:00
1 1954-08-24 11:00:00 HR (Humedad Relativa) es igual a 100% y Ts <> Td 4.0 - 3.4 2014-02-27 20:04:00
1 1954-08-24 13:00:00 HR (Humedad Relativa) es igual a 100% y Ts <> Td 5.2 - 4.8 2014-02-27 20:05:00
1 1954-08-24 14:00:00 HR (Humedad Relativa) es igual a 100% y Ts <> Td 6.8 - 6.2 2014-02-27 20:05:00
1 1954-08-24 15:00:00 HR (Humedad Relativa) es igual a 100% y Ts <> Td 9.0 - 7.3 2014-02-27 20:05:00
1 1954-08-24 16:00:00 HR (Humedad Relativa) es igual a 100% y Ts <> Td 9.8 - 9.2 2014-02-27 20:05:00
1 1954-08-24 17:00:00 HR (Humedad Relativa) es igual a 100% y Ts <> Td 11.9 - 8.2 2014-02-27 20:05:00
1 1954-08-25 13:00:00 HR (Humedad Relativa) es igual a 100% y Ts <> Td 3.4 - 0.7 2014-02-28 12:42:00
1 1954-08-25 14:00:00 HR (Humedad Relativa) es igual a 100% y Ts <> Td 6.7 - 5.5 2014-02-28 12:42:00
1 1954-08-25 15:00:00 HR (Humedad Relativa) es igual a 100% y Ts <> Td 10.4 - 6.6 2014-02-28 12:42:00
1 1954-08-26 10:00:00 HR (Humedad Relativa) es igual a 100% y Ts <> Td 5.4 - 4.6 2014-02-28 12:54:00
1 1954-08-26 11:00:00 HR (Humedad Relativa) es igual a 100% y Ts <> Td 5.4 - 4.6 2014-02-28 12:54:00
1 1954-08-26 12:00:00 HR (Humedad Relativa) es igual a 100% y Ts <> Td 5.0 - 4.1 2014-02-28 12:54:00
1 1954-08-26 13:00:00 HR (Humedad Relativa) es igual a 100% y Ts <> Td 6.2 - 4.8 2014-02-28 12:54:00
1 1954-08-26 14:00:00 HR (Humedad Relativa) es igual a 100% y Ts <> Td 9.7 - 5.8 2014-02-28 12:54:00
1 1954-08-27 10:00:00 HR (Humedad Relativa) es igual a 100% y Ts <> Td 3.2 - 2.8 2014-02-28 13:04:00
1 1954-08-27 11:00:00 HR (Humedad Relativa) es igual a 100% y Ts <> Td 2.5 - 2.2 2014-02-28 13:04:00
1 1954-08-27 12:00:00 Ts debe ser mayor o igual a Td Ts=2.8 - Td=3.2 2014-02-28 13:04:00
1 1954-08-27 12:00:00 HR (Humedad Relativa) es igual a 100% y Ts <> Td 2.8 - 3.2 2014-02-28 13:04:00
1 1954-08-28 10:00:00 HR (Humedad Relativa) es igual a 100% y Ts <> Td 6.4 - 6.0 2014-02-28 13:36:00
1 1954-08-28 11:00:00 HR (Humedad Relativa) es igual a 100% y Ts <> Td 6.4 - 6.0 2014-02-28 13:36:00
1 1954-08-28 12:00:00 HR (Humedad Relativa) es igual a 100% y Ts <> Td 7.2 - 6.2 2014-02-28 13:36:00
1 1954-08-28 13:00:00 HR (Humedad Relativa) es igual a 100% y Ts <> Td 7.4 - 6.4 2014-02-28 13:37:00
1 1954-08-28 14:00:00 HR (Humedad Relativa) es igual a 100% y Ts <> Td 8.8 - 7.7 2014-02-28 13:37:00
1 1954-08-28 15:00:00 HR (Humedad Relativa) es igual a 100% y Ts <> Td 10.6 - 9.0 2014-02-28 13:37:00
1 1954-08-28 16:00:00 HR (Humedad Relativa) es igual a 100% y Ts <> Td 12.8 - 9.3 2014-02-28 13:37:00
1 1954-08-29 10:00:00 HR (Humedad Relativa) es igual a 100% y Ts <> Td 6.4 - 5.6 2014-02-28 13:51:00
1 1954-08-29 11:00:00 HR (Humedad Relativa) es igual a 100% y Ts <> Td 6.4 - 5.6 2014-02-28 13:51:00
1 1954-08-29 12:00:00 HR (Humedad Relativa) es igual a 100% y Ts <> Td 6.5 - 5.9 2014-02-28 13:51:00
1 1954-08-29 13:00:00 HR (Humedad Relativa) es igual a 100% y Ts <> Td 6.7 - 6.0 2014-02-28 13:52:00
1 1954-08-30 12:00:00 HR (Humedad Relativa) es igual a 100% y Ts <> Td 3.4 - 3.0 2014-02-28 14:22:00
1 1954-08-30 13:00:00 HR (Humedad Relativa) es igual a 100% y Ts <> Td 3.6 - 2.6 2014-02-28 14:22:00
1 1954-08-30 14:00:00 HR (Humedad Relativa) es igual a 100% y Ts <> Td 5.9 - 3.6 2014-02-28 14:22:00
1 1954-08-30 15:00:00 HR (Humedad Relativa) es igual a 100% y Ts <> Td 7.6 - 5.0 2014-02-28 14:22:00
1 1954-08-30 16:00:00 HR (Humedad Relativa) es igual a 100% y Ts <> Td 10.6 - 6.4 2014-02-28 14:22:00
1 1954-08-30 20:00:00 HR (Humedad Relativa) es igual a 100% y Ts <> Td 9.8 - 4.6 2014-02-28 14:23:00
1 1954-08-30 22:00:00 HR (Humedad Relativa) es igual a 100% y Ts <> Td 8.5 - 3.7 2014-02-28 14:23:00
1 1954-08-30 23:00:00 HR (Humedad Relativa) es igual a 100% y Ts <> Td 7.5 - 4.9 2014-02-28 14:23:00
1 1954-08-31 14:00:00 HR (Humedad Relativa) es igual a 100% y Ts <> Td 3.6 - 2.0 2014-02-28 15:03:00
1 1954-08-31 15:00:00 HR (Humedad Relativa) es igual a 100% y Ts <> Td 6.8 - 1.7 2014-02-28 15:03:00
1 1954-09-01 14:00:00 HR (Humedad Relativa) es igual a 100% y Ts <> Td 4.5 - -1.2 2014-02-28 15:25:00
1 1954-09-01 15:00:00 HR (Humedad Relativa) es igual a 100% y Ts <> Td 8.5 - 4.1 2014-02-28 15:25:00
1 1954-09-02 11:00:00 HR (Humedad Relativa) es igual a 100% y Ts <> Td 6.9 - 6.6 2014-02-28 17:06:00
1 1954-09-02 13:00:00 HR (Humedad Relativa) es igual a 100% y Ts <> Td 7.2 - 6.4 2014-02-28 17:07:00
1 1954-09-02 14:00:00 HR (Humedad Relativa) es igual a 100% y Ts <> Td 7.8 - 5.6 2014-02-28 17:07:00
1 1954-09-02 15:00:00 HR (Humedad Relativa) es igual a 100% y Ts <> Td 8.5 - 6.2 2014-02-28 17:07:00
1 1954-09-02 16:00:00 HR (Humedad Relativa) es igual a 100% y Ts <> Td 9.8 - 6.7 2014-02-28 17:07:00
1 1954-09-02 17:00:00 HR (Humedad Relativa) es igual a 100% y Ts <> Td 9.9 - 5.9 2014-02-28 17:07:00
1 1954-09-02 18:00:00 HR (Humedad Relativa) es igual a 100% y Ts <> Td 9.2 - 6.4 2014-02-28 17:07:00
1 1954-09-02 19:00:00 HR (Humedad Relativa) es igual a 100% y Ts <> Td 8.9 - 6.9 2014-02-28 17:07:00
1 1954-09-02 20:00:00 HR (Humedad Relativa) es igual a 100% y Ts <> Td 9.6 - 6.2 2014-02-28 17:07:00
1 1954-09-02 21:00:00 HR (Humedad Relativa) es igual a 100% y Ts <> Td 9.7 - 6.1 2014-02-28 17:07:00
1 1954-09-02 22:00:00 HR (Humedad Relativa) es igual a 100% y Ts <> Td 8.8 - 4.8 2014-02-28 17:07:00
1 1954-09-02 23:00:00 HR (Humedad Relativa) es igual a 100% y Ts <> Td 8.8 - 7.3 2014-02-28 17:07:00
1 1954-09-03 10:00:00 HR (Humedad Relativa) es igual a 100% y Ts <> Td 7.4 - 5.9 2014-02-28 17:18:00
1 1954-09-03 11:00:00 HR (Humedad Relativa) es igual a 100% y Ts <> Td 7.4 - 5.9 2014-02-28 17:18:00
1 1954-09-03 14:00:00 HR (Humedad Relativa) es igual a 100% y Ts <> Td 6.4 - 6.0 2014-02-28 17:18:00
1 1954-09-03 17:00:00 HR (Humedad Relativa) es igual a 100% y Ts <> Td 5.5 - 5.0 2014-02-28 17:18:00
1 1954-09-03 18:00:00 HR (Humedad Relativa) es igual a 100% y Ts <> Td 5.4 - 4.6 2014-02-28 17:18:00
1 1954-09-03 19:00:00 HR (Humedad Relativa) es igual a 100% y Ts <> Td 5.0 - 4.7 2014-02-28 17:18:00
1 1954-09-03 20:00:00 HR (Humedad Relativa) es igual a 100% y Ts <> Td 5.6 - 4.9 2014-02-28 17:18:00
1 1954-09-03 21:00:00 HR (Humedad Relativa) es igual a 100% y Ts <> Td 6.0 - 5.0 2014-02-28 17:18:00
1 1954-09-03 23:00:00 HR (Humedad Relativa) es igual a 100% y Ts <> Td 6.1 - 5.4 2014-02-28 17:18:00
1 1954-09-04 10:00:00 HR (Humedad Relativa) es igual a 100% y Ts <> Td 3.4 - 3.0 2014-02-28 18:11:00
1 1954-09-04 11:00:00 HR (Humedad Relativa) es igual a 100% y Ts <> Td 3.4 - 3.0 2014-02-28 18:11:00
1 1954-09-04 13:00:00 HR (Humedad Relativa) es igual a 100% y Ts <> Td 2.7 - 2.0 2014-02-28 18:11:00
1 1954-09-04 14:00:00 HR (Humedad Relativa) es igual a 100% y Ts <> Td 7.2 - 4.8 2014-02-28 18:11:00
1 1954-09-04 15:00:00 HR (Humedad Relativa) es igual a 100% y Ts <> Td 7.0 - 6.0 2014-02-28 18:11:00
1 1954-09-05 10:00:00 HR (Humedad Relativa) es igual a 100% y Ts <> Td 3.6 - 2.6 2014-02-28 18:19:00
1 1954-09-05 11:00:00 HR (Humedad Relativa) es igual a 100% y Ts <> Td 3.2 - 2.8 2014-02-28 18:19:00
1 1954-09-05 12:00:00 HR (Humedad Relativa) es igual a 100% y Ts <> Td 3.4 - 2.6 2014-02-28 18:19:00
1 1954-09-05 13:00:00 HR (Humedad Relativa) es igual a 100% y Ts <> Td 4.2 - 3.8 2014-02-28 18:19:00
1 1954-09-05 14:00:00 HR (Humedad Relativa) es igual a 100% y Ts <> Td 6.4 - 3.6 2014-02-28 18:19:00
1 1954-09-05 15:00:00 HR (Humedad Relativa) es igual a 100% y Ts <> Td 8.9 - 6.4 2014-02-28 18:19:00
1 1954-09-06 13:00:00 HR (Humedad Relativa) es igual a 100% y Ts <> Td 1.6 - 1.0 2014-02-28 18:28:00
1 1954-09-06 14:00:00 HR (Humedad Relativa) es igual a 100% y Ts <> Td 4.7 - 4.1 2014-02-28 18:28:00
1 1954-09-08 11:00:00 Ts debe ser mayor o igual a Td Ts=-1.9 - Td=-1.7 2014-02-28 18:47:00
1 1954-09-08 12:00:00 HR (Humedad Relativa) es igual a 100% y Ts <> Td -1.8 - -2.0 2014-02-28 18:47:00
1 1954-09-10 23:00:00 HR (Humedad Relativa) es igual a 100% y Ts <> Td 5.0 - 4.1 2014-03-03 12:45:00
1 1954-09-20 13:00:00 HR (Humedad Relativa) es igual a 100% y Ts <> Td 6.4 - 5.8 2014-03-03 18:10:00
1 1954-09-20 14:00:00 HR (Humedad Relativa) es igual a 100% y Ts <> Td 6.3 - 5.3 2014-03-03 18:10:00
1 1954-09-20 15:00:00 HR (Humedad Relativa) es igual a 100% y Ts <> Td 6.2 - 5.4 2014-03-03 18:10:00
1 1954-09-20 17:00:00 HR (Humedad Relativa) es igual a 100% y Ts <> Td 6.9 - 5.4 2014-03-03 18:10:00
1 1954-09-20 18:00:00 HR (Humedad Relativa) es igual a 100% y Ts <> Td 6.7 - 5.7 2014-03-03 18:10:00
1 1954-09-20 19:00:00 HR (Humedad Relativa) es igual a 100% y Ts <> Td 7.0 - 5.4 2014-03-03 18:10:00
1 1954-09-20 20:00:00 HR (Humedad Relativa) es igual a 100% y Ts <> Td 8.2 - 6.6 2014-03-03 18:10:00
1 1954-09-20 21:00:00 HR (Humedad Relativa) es igual a 100% y Ts <> Td 9.1 - 4.9 2014-03-03 18:10:00
1 1954-09-20 22:00:00 HR (Humedad Relativa) es igual a 100% y Ts <> Td 9.0 - 6.1 2014-03-03 18:10:00
1 1954-09-20 23:00:00 HR (Humedad Relativa) es igual a 100% y Ts <> Td 7.4 - 5.6 2014-03-03 18:10:00
1 1954-09-21 10:00:00 HR (Humedad Relativa) es igual a 100% y Ts <> Td 3.4 - 3.0 2014-03-03 18:22:00
1 1954-09-21 12:00:00 HR (Humedad Relativa) es igual a 100% y Ts <> Td 3.4 - 3.0 2014-03-03 18:22:00
1 1954-09-21 13:00:00 HR (Humedad Relativa) es igual a 100% y Ts <> Td 3.4 - 3.0 2014-03-03 18:23:00
1 1954-09-21 15:00:00 HR (Humedad Relativa) es igual a 100% y Ts <> Td 6.2 - 4.0 2014-03-03 18:23:00
1 1954-09-21 16:00:00 HR (Humedad Relativa) es igual a 100% y Ts <> Td 8.2 - 6.0 2014-03-03 18:23:00
1 1954-09-22 12:00:00 HR (Humedad Relativa) es igual a 100% y Ts <> Td 3.2 - 2.8 2014-03-03 18:31:00
1 1954-09-22 14:00:00 HR (Humedad Relativa) es igual a 100% y Ts <> Td 6.0 - 5.0 2014-03-03 18:31:00
1 1954-09-22 15:00:00 HR (Humedad Relativa) es igual a 100% y Ts <> Td 8.2 - 4.2 2014-03-03 18:31:00
1 1954-09-22 16:00:00 HR (Humedad Relativa) es igual a 100% y Ts <> Td 8.9 - 4.1 2014-03-03 18:31:00
1 1954-09-22 17:00:00 HR (Humedad Relativa) es igual a 100% y Ts <> Td 10.6 - 5.6 2014-03-03 18:31:00
1 1954-09-23 10:00:00 HR (Humedad Relativa) es igual a 100% y Ts <> Td 2.5 - 1.3 2014-03-03 18:39:00
1 1954-09-23 11:00:00 HR (Humedad Relativa) es igual a 100% y Ts <> Td 3.0 - 1.9 2014-03-03 18:39:00
1 1954-09-23 12:00:00 HR (Humedad Relativa) es igual a 100% y Ts <> Td 3.6 - 2.2 2014-03-03 18:39:00
1 1954-09-27 10:00:00 HR (Humedad Relativa) es igual a 100% y Ts <> Td 5.5 - 4.9 2014-03-03 20:03:00
1 1954-09-27 11:00:00 HR (Humedad Relativa) es igual a 100% y Ts <> Td 5.5 - 4.9 2014-03-03 20:03:00
1 1954-09-27 12:00:00 HR (Humedad Relativa) es igual a 100% y Ts <> Td 5.5 - 4.9 2014-03-03 20:03:00
1 1954-09-27 13:00:00 HR (Humedad Relativa) es igual a 100% y Ts <> Td 5.2 - 4.6 2014-03-03 20:03:00
1 1954-09-27 14:00:00 HR (Humedad Relativa) es igual a 100% y Ts <> Td 5.5 - 4.6 2014-03-03 20:03:00
1 1954-09-27 15:00:00 HR (Humedad Relativa) es igual a 100% y Ts <> Td 5.5 - 4.5 2014-03-03 20:03:00
1 1954-09-27 16:00:00 HR (Humedad Relativa) es igual a 100% y Ts <> Td 6.3 - 4.5 2014-03-03 20:03:00
1 1954-09-27 17:00:00 HR (Humedad Relativa) es igual a 100% y Ts <> Td 7.2 - 5.2 2014-03-03 20:03:00
1 1954-09-27 18:00:00 HR (Humedad Relativa) es igual a 100% y Ts <> Td 7.6 - 5.3 2014-03-03 20:03:00
1 1954-09-27 19:00:00 HR (Humedad Relativa) es igual a 100% y Ts <> Td 7.1 - 5.4 2014-03-03 20:03:00
1 1954-09-27 20:00:00 HR (Humedad Relativa) es igual a 100% y Ts <> Td 7.0 - 5.4 2014-03-03 20:03:00
1 1954-09-27 21:00:00 HR (Humedad Relativa) es igual a 100% y Ts <> Td 6.5 - 5.5 2014-03-03 20:03:00
1 1954-09-27 22:00:00 HR (Humedad Relativa) es igual a 100% y Ts <> Td 6.8 - 5.6 2014-03-03 20:03:00
1 1954-09-27 23:00:00 HR (Humedad Relativa) es igual a 100% y Ts <> Td 6.5 - 5.1 2014-03-03 20:03:00
1 1954-09-28 10:00:00 HR (Humedad Relativa) es igual a 100% y Ts <> Td 7.4 - 6.6 2014-03-04 12:35:00
1 1954-09-28 11:00:00 HR (Humedad Relativa) es igual a 100% y Ts <> Td 7.4 - 6.4 2014-03-04 12:35:00
1 1954-09-28 12:00:00 HR (Humedad Relativa) es igual a 100% y Ts <> Td 7.8 - 7.4 2014-03-04 12:35:00
1 1954-09-28 13:00:00 HR (Humedad Relativa) es igual a 100% y Ts <> Td 8.8 - 7.4 2014-03-04 12:35:00
1 1954-09-28 14:00:00 HR (Humedad Relativa) es igual a 100% y Ts <> Td 8.9 - 8.4 2014-03-04 12:35:00
1 1954-09-28 15:00:00 HR (Humedad Relativa) es igual a 100% y Ts <> Td 9.8 - 8.2 2014-03-04 12:35:00
1 1954-09-28 16:00:00 HR (Humedad Relativa) es igual a 100% y Ts <> Td 10.6 - 8.8 2014-03-04 12:36:00
1 1954-09-28 17:00:00 HR (Humedad Relativa) es igual a 100% y Ts <> Td 11.6 - 8.8 2014-03-04 12:36:00
1 1954-09-28 18:00:00 HR (Humedad Relativa) es igual a 100% y Ts <> Td 12.4 - 8.3 2014-03-04 12:36:00
1 1954-09-28 23:00:00 HR (Humedad Relativa) es igual a 100% y Ts <> Td 11.6 - 7.9 2014-03-04 12:36:00
1 1954-09-29 10:00:00 HR (Humedad Relativa) es igual a 100% y Ts <> Td 2.8 - 2.4 2014-03-04 13:04:00
1 1954-09-29 11:00:00 HR (Humedad Relativa) es igual a 100% y Ts <> Td 2.6 - 2.2 2014-03-04 13:04:00
1 1954-09-29 12:00:00 HR (Humedad Relativa) es igual a 100% y Ts <> Td 5.7 - 4.2 2014-03-04 13:04:00
1 1954-09-30 10:00:00 Ts debe ser mayor o igual a Td Ts=1.5 - Td=9.0 2014-03-04 13:38:00
1 1954-10-01 10:00:00 HR (Humedad Relativa) es igual a 100% y Ts <> Td 4.5 - 3.1 2014-03-04 14:07:00
1 1954-10-01 11:00:00 HR (Humedad Relativa) es igual a 100% y Ts <> Td 4.5 - 3.1 2014-03-04 14:07:00
1 1954-10-02 10:00:00 HR (Humedad Relativa) es igual a 100% y Ts <> Td 5.7 - 5.1 2014-03-04 14:28:00
1 1954-10-02 11:00:00 HR (Humedad Relativa) es igual a 100% y Ts <> Td 5.7 - 5.3 2014-03-04 14:28:00
1 1954-10-05 10:00:00 HR (Humedad Relativa) es igual a 100% y Ts <> Td 5.3 - 4.7 2014-03-04 18:19:00
1 1954-10-05 11:00:00 HR (Humedad Relativa) es igual a 100% y Ts <> Td 5.3 - 4.7 2014-03-04 18:19:00
1 1954-10-05 12:00:00 HR (Humedad Relativa) es igual a 100% y Ts <> Td 5.9 - 5.3 2014-03-04 18:19:00
1 1954-10-05 13:00:00 HR (Humedad Relativa) es igual a 100% y Ts <> Td 8.6 - 5.6 2014-03-04 18:19:00
1 1954-10-05 14:00:00 HR (Humedad Relativa) es igual a 100% y Ts <> Td 9.9 - 5.9 2014-03-04 18:19:00
1 1954-10-05 15:00:00 HR (Humedad Relativa) es igual a 100% y Ts <> Td 10.1 - 7.0 2014-03-04 18:19:00
1 1954-10-05 16:00:00 HR (Humedad Relativa) es igual a 100% y Ts <> Td 10.9 - 9.5 2014-03-04 18:20:00
1 1954-10-05 17:00:00 HR (Humedad Relativa) es igual a 100% y Ts <> Td 11.9 - 8.6 2014-03-04 18:20:00
1 1954-10-05 22:00:00 HR (Humedad Relativa) es igual a 100% y Ts <> Td 10.4 - 5.4 2014-03-04 18:20:00
1 1954-10-05 23:00:00 HR (Humedad Relativa) es igual a 100% y Ts <> Td 9.8 - 5.6 2014-03-04 18:20:00
1 1954-10-06 10:00:00 HR (Humedad Relativa) es igual a 100% y Ts <> Td 4.8 - 4.6 2014-03-04 18:30:00
1 1954-10-06 11:00:00 HR (Humedad Relativa) es igual a 100% y Ts <> Td 5.0 - 4.6 2014-03-04 18:30:00
1 1954-10-06 12:00:00 HR (Humedad Relativa) es igual a 100% y Ts <> Td 6.2 - 5.2 2014-03-04 18:30:00
1 1954-10-06 13:00:00 HR (Humedad Relativa) es igual a 100% y Ts <> Td 8.2 - 6.2 2014-03-04 18:30:00
1 1954-10-07 10:00:00 HR (Humedad Relativa) es igual a 100% y Ts <> Td 2.8 - 2.4 2014-03-04 18:40:00
1 1954-10-07 11:00:00 HR (Humedad Relativa) es igual a 100% y Ts <> Td 3.2 - 2.8 2014-03-04 18:40:00
1 1954-10-07 12:00:00 HR (Humedad Relativa) es igual a 100% y Ts <> Td 5.0 - 4.6 2014-03-04 18:40:00
1 1954-10-07 13:00:00 HR (Humedad Relativa) es igual a 100% y Ts <> Td 7.0 - 4.6 2014-03-04 18:40:00
1 1954-10-07 14:00:00 HR (Humedad Relativa) es igual a 100% y Ts <> Td 9.2 - 4.5 2014-03-04 18:40:00
1 1954-10-09 10:00:00 HR (Humedad Relativa) es igual a 100% y Ts <> Td 3.7 - 3.3 2014-03-04 19:12:00
1 1954-10-09 11:00:00 HR (Humedad Relativa) es igual a 100% y Ts <> Td 3.4 - 3.0 2014-03-04 19:12:00
1 1954-10-09 16:00:00 Ts debe ser mayor o igual a Td Ts=6.7 - Td=11.2 2014-03-04 19:12:00
1 1954-10-18 23:00:00 HR (Humedad Relativa) es igual a 100% y Ts <> Td 12.6 - 6.9 2014-03-05 14:24:00
1 1954-10-19 10:00:00 HR (Humedad Relativa) es igual a 100% y Ts <> Td 4.9 - 4.1 2014-03-05 14:35:00
1 1954-10-19 11:00:00 HR (Humedad Relativa) es igual a 100% y Ts <> Td 4.9 - 4.1 2014-03-05 14:35:00
1 1954-10-19 12:00:00 HR (Humedad Relativa) es igual a 100% y Ts <> Td 6.0 - 5.2 2014-03-05 14:35:00
1 1954-10-19 13:00:00 HR (Humedad Relativa) es igual a 100% y Ts <> Td 6.7 - 5.5 2014-03-05 14:35:00
1 1954-10-19 14:00:00 HR (Humedad Relativa) es igual a 100% y Ts <> Td 8.5 - 5.2 2014-03-05 14:35:00
1 1954-10-19 15:00:00 HR (Humedad Relativa) es igual a 100% y Ts <> Td 10.0 - 5.6 2014-03-05 14:35:00
1 1954-10-19 19:00:00 HR (Humedad Relativa) es igual a 100% y Ts <> Td 12.0 - 7.2 2014-03-05 14:35:00
1 1954-10-19 20:00:00 HR (Humedad Relativa) es igual a 100% y Ts <> Td 11.0 - 7.1 2014-03-05 14:35:00
1 1954-10-19 21:00:00 HR (Humedad Relativa) es igual a 100% y Ts <> Td 9.5 - 7.1 2014-03-05 14:35:00
1 1954-10-19 22:00:00 HR (Humedad Relativa) es igual a 100% y Ts <> Td 9.0 - 7.3 2014-03-05 14:36:00
1 1954-10-19 23:00:00 HR (Humedad Relativa) es igual a 100% y Ts <> Td 8.6 - 7.1 2014-03-05 14:36:00
1 1954-10-20 10:00:00 HR (Humedad Relativa) es igual a 100% y Ts <> Td 4.5 - 4.1 2014-03-05 15:59:00
1 1954-10-20 11:00:00 HR (Humedad Relativa) es igual a 100% y Ts <> Td 4.5 - 4.1 2014-03-05 15:59:00
1 1954-10-20 12:00:00 HR (Humedad Relativa) es igual a 100% y Ts <> Td 6.0 - 4.9 2014-03-05 15:59:00
1 1954-10-20 13:00:00 HR (Humedad Relativa) es igual a 100% y Ts <> Td 9.6 - 7.5 2014-03-05 15:59:00
1 1954-10-20 14:00:00 HR (Humedad Relativa) es igual a 100% y Ts <> Td 10.5 - 6.4 2014-03-05 15:59:00
1 1954-10-21 10:00:00 HR (Humedad Relativa) es igual a 100% y Ts <> Td 6.2 - 5.6 2014-03-05 17:56:00
1 1954-10-22 10:00:00 HR (Humedad Relativa) es igual a 100% y Ts <> Td 4.4 - 3.4 2014-03-05 18:19:00
1 1954-10-22 11:00:00 HR (Humedad Relativa) es igual a 100% y Ts <> Td 4.4 - 3.4 2014-03-05 18:19:00
1 1954-10-25 10:00:00 HR (Humedad Relativa) es igual a 100% y Ts <> Td 1.8 - 1.0 2014-03-05 19:10:00
1 1954-10-25 11:00:00 HR (Humedad Relativa) es igual a 100% y Ts <> Td 2.4 - 1.2 2014-03-05 19:10:00
1 1954-10-25 12:00:00 HR (Humedad Relativa) es igual a 100% y Ts <> Td 6.4 - 4.4 2014-03-05 19:10:00
1 1954-10-25 13:00:00 HR (Humedad Relativa) es igual a 100% y Ts <> Td 7.7 - 6.7 2014-03-05 19:10:00
1 1954-11-02 10:00:00 HR (Humedad Relativa) es igual a 100% y Ts <> Td 9.4 - 8.4 2014-03-06 13:43:00
1 1954-11-02 11:00:00 HR (Humedad Relativa) es igual a 100% y Ts <> Td 9.4 - 8.4 2014-03-06 13:43:00
1 1954-11-02 12:00:00 HR (Humedad Relativa) es igual a 100% y Ts <> Td 11.0 - 10.1 2014-03-06 13:43:00
1 1954-11-02 13:00:00 HR (Humedad Relativa) es igual a 100% y Ts <> Td 12.2 - 11.5 2014-03-06 13:43:00
1 1954-11-02 14:00:00 HR (Humedad Relativa) es igual a 100% y Ts <> Td 16.0 - 14.1 2014-03-06 13:43:00
1 1954-11-02 23:00:00 HR (Humedad Relativa) es igual a 100% y Ts <> Td 13.6 - 11.5 2014-03-06 13:44:00
1 1954-11-03 10:00:00 HR (Humedad Relativa) es igual a 100% y Ts <> Td 10.5 - 9.8 2014-03-06 14:05:00
1 1954-11-03 11:00:00 HR (Humedad Relativa) es igual a 100% y Ts <> Td 10.5 - 9.8 2014-03-06 14:05:00
1 1954-11-03 12:00:00 HR (Humedad Relativa) es igual a 100% y Ts <> Td 11.4 - 9.6 2014-03-06 14:05:00
1 1954-11-03 13:00:00 HR (Humedad Relativa) es igual a 100% y Ts <> Td 11.5 - 9.5 2014-03-06 14:05:00
1 1954-11-03 14:00:00 HR (Humedad Relativa) es igual a 100% y Ts <> Td 12.6 - 10.3 2014-03-06 14:05:00
1 1954-11-03 15:00:00 HR (Humedad Relativa) es igual a 100% y Ts <> Td 13.0 - 9.3 2014-03-06 14:05:00
1 1954-11-04 10:00:00 HR (Humedad Relativa) es igual a 100% y Ts <> Td 11.0 - 10.0 2014-03-06 14:16:00
1 1954-11-04 11:00:00 HR (Humedad Relativa) es igual a 100% y Ts <> Td 10.8 - 10.0 2014-03-06 14:16:00
1 1954-11-04 12:00:00 HR (Humedad Relativa) es igual a 100% y Ts <> Td 11.8 - 10.0 2014-03-06 14:16:00
1 1954-11-05 10:00:00 HR (Humedad Relativa) es igual a 100% y Ts <> Td 10.8 - 10.0 2014-03-06 14:25:00
1 1954-11-05 11:00:00 HR (Humedad Relativa) es igual a 100% y Ts <> Td 10.8 - 10.0 2014-03-06 14:25:00
1 1954-11-05 12:00:00 HR (Humedad Relativa) es igual a 100% y Ts <> Td 9.4 - 8.6 2014-03-06 14:25:00
1 1954-11-05 13:00:00 HR (Humedad Relativa) es igual a 100% y Ts <> Td 9.4 - 8.6 2014-03-06 14:25:00
1 1954-11-05 14:00:00 HR (Humedad Relativa) es igual a 100% y Ts <> Td 8.5 - 7.5 2014-03-06 14:25:00
1 1954-11-05 15:00:00 HR (Humedad Relativa) es igual a 100% y Ts <> Td 10.0 - 9.0 2014-03-06 14:25:00
1 1954-11-05 16:00:00 HR (Humedad Relativa) es igual a 100% y Ts <> Td 11.7 - 9.4 2014-03-06 14:25:00
1 1954-11-08 10:00:00 HR (Humedad Relativa) es igual a 100% y Ts <> Td 5.5 - 4.9 2014-03-06 17:46:00
1 1954-11-08 11:00:00 HR (Humedad Relativa) es igual a 100% y Ts <> Td 5.5 - 4.9 2014-03-06 17:46:00
1 1954-11-08 12:00:00 HR (Humedad Relativa) es igual a 100% y Ts <> Td 6.2 - 5.8 2014-03-06 17:46:00
1 1954-11-08 13:00:00 HR (Humedad Relativa) es igual a 100% y Ts <> Td 8.2 - 7.5 2014-03-06 17:46:00
1 1954-11-09 08:00:00 HR (Humedad Relativa) es igual a 100% y Ts <> Td 6.4 - 5.6 2014-03-12 12:45:00
1 1954-11-09 09:00:00 HR (Humedad Relativa) es igual a 100% y Ts <> Td 6.4 - 5.6 2014-03-12 12:45:00
1 1954-11-09 10:00:00 HR (Humedad Relativa) es igual a 100% y Ts <> Td 6.4 - 5.6 2014-03-06 17:59:00
1 1954-11-09 11:00:00 HR (Humedad Relativa) es igual a 100% y Ts <> Td 6.2 - 5.6 2014-03-06 17:59:00
1 1954-11-09 12:00:00 HR (Humedad Relativa) es igual a 100% y Ts <> Td 7.5 - 6.5 2014-03-06 17:59:00
1 1954-11-09 13:00:00 HR (Humedad Relativa) es igual a 100% y Ts <> Td 8.5 - 7.1 2014-03-06 17:59:00
1 1954-11-09 14:00:00 HR (Humedad Relativa) es igual a 100% y Ts <> Td 11.1 - 8.2 2014-03-06 17:59:00
1 1954-11-10 10:00:00 HR (Humedad Relativa) es igual a 100% y Ts <> Td 6.8 - 6.6 2014-03-06 18:08:00
1 1954-11-10 11:00:00 HR (Humedad Relativa) es igual a 100% y Ts <> Td 7.9 - 7.3 2014-03-06 18:08:00
1 1954-11-10 12:00:00 HR (Humedad Relativa) es igual a 100% y Ts <> Td 9.8 - 8.3 2014-03-06 18:08:00
1 1954-11-10 13:00:00 HR (Humedad Relativa) es igual a 100% y Ts <> Td 12.0 - 9.8 2014-03-06 18:08:00
1 1954-11-11 10:00:00 HR (Humedad Relativa) es igual a 100% y Ts <> Td 5.2 - 4.8 2014-03-06 18:16:00
1 1954-11-11 11:00:00 HR (Humedad Relativa) es igual a 100% y Ts <> Td 6.8 - 6.0 2014-03-06 18:16:00
1 1954-11-11 12:00:00 HR (Humedad Relativa) es igual a 100% y Ts <> Td 10.6 - 8.6 2014-03-06 18:16:00
1 1954-11-13 10:00:00 HR (Humedad Relativa) es igual a 100% y Ts <> Td 6.7 - 5.7 2014-03-06 18:32:00
1 1954-11-13 11:00:00 HR (Humedad Relativa) es igual a 100% y Ts <> Td 7.7 - 6.5 2014-03-06 18:32:00
1 1954-11-13 12:00:00 HR (Humedad Relativa) es igual a 100% y Ts <> Td 7.7 - 6.7 2014-03-06 18:32:00
1 1954-11-13 13:00:00 HR (Humedad Relativa) es igual a 100% y Ts <> Td 7.7 - 6.7 2014-03-06 18:32:00
1 1954-11-14 10:00:00 HR (Humedad Relativa) es igual a 100% y Ts <> Td 7.7 - 7.3 2014-03-06 18:39:00
1 1954-11-16 10:00:00 HR (Humedad Relativa) es igual a 100% y Ts <> Td 3.2 - 2.7 2014-03-06 19:05:00
1 1954-11-16 11:00:00 HR (Humedad Relativa) es igual a 100% y Ts <> Td 4.6 - 3.4 2014-03-06 19:05:00
1 1954-11-17 09:00:00 HR (Humedad Relativa) es igual a 100% y Ts <> Td 10.0 - 9.4 2014-03-12 12:47:00
1 1954-11-17 10:00:00 HR (Humedad Relativa) es igual a 100% y Ts <> Td 10.9 - 9.6 2014-03-06 19:27:00
1 1954-11-17 11:00:00 HR (Humedad Relativa) es igual a 100% y Ts <> Td 10.8 - 9.5 2014-03-06 19:27:00
1 1954-11-17 12:00:00 HR (Humedad Relativa) es igual a 100% y Ts <> Td 11.8 - 10.0 2014-03-06 19:27:00
1 1954-11-17 13:00:00 HR (Humedad Relativa) es igual a 100% y Ts <> Td 12.4 - 9.9 2014-03-06 19:27:00
1 1954-11-17 14:00:00 HR (Humedad Relativa) es igual a 100% y Ts <> Td 13.5 - 10.7 2014-03-06 19:27:00
1 1954-11-18 07:00:00 HR (Humedad Relativa) es igual a 100% y Ts <> Td 6.7 - 6.3 2014-03-12 12:49:00
1 1954-11-18 08:00:00 HR (Humedad Relativa) es igual a 100% y Ts <> Td 6.7 - 6.3 2014-03-12 12:49:00
1 1954-11-18 09:00:00 HR (Humedad Relativa) es igual a 100% y Ts <> Td 6.7 - 6.3 2014-03-12 12:49:00
1 1954-11-19 10:00:00 HR (Humedad Relativa) es igual a 100% y Ts <> Td 4.2 - 3.8 2014-03-07 12:34:00
1 1954-11-19 11:00:00 HR (Humedad Relativa) es igual a 100% y Ts <> Td 5.9 - 4.9 2014-03-07 12:34:00
1 1954-11-19 12:00:00 HR (Humedad Relativa) es igual a 100% y Ts <> Td 8.7 - 6.4 2014-03-07 12:37:00
1 1954-11-19 13:00:00 HR (Humedad Relativa) es igual a 100% y Ts <> Td 8.4 - 6.7 2014-03-07 12:35:00
1 1954-11-21 10:00:00 HR (Humedad Relativa) es igual a 100% y Ts <> Td 7.5 - 6.5 2014-03-07 13:37:00
1 1954-11-21 11:00:00 HR (Humedad Relativa) es igual a 100% y Ts <> Td 7.5 - 6.5 2014-03-07 13:37:00
1 1954-11-21 12:00:00 HR (Humedad Relativa) es igual a 100% y Ts <> Td 9.2 - 8.8 2014-03-07 13:37:00
1 1954-11-21 13:00:00 HR (Humedad Relativa) es igual a 100% y Ts <> Td 10.0 - 9.6 2014-03-07 13:37:00
1 1954-11-23 10:00:00 HR (Humedad Relativa) es igual a 100% y Ts <> Td 7.7 - 7.3 2014-03-07 13:54:00
1 1954-11-23 11:00:00 HR (Humedad Relativa) es igual a 100% y Ts <> Td 7.7 - 7.3 2014-03-07 13:54:00
1 1954-11-23 12:00:00 HR (Humedad Relativa) es igual a 100% y Ts <> Td 8.7 - 8.3 2014-03-07 13:54:00
1 1954-11-23 13:00:00 HR (Humedad Relativa) es igual a 100% y Ts <> Td 10.4 - 9.2 2014-03-07 13:55:00
1 1954-11-23 14:00:00 HR (Humedad Relativa) es igual a 100% y Ts <> Td 13.2 - 9.7 2014-03-07 13:55:00
1 1954-11-24 08:00:00 HR (Humedad Relativa) es igual a 100% y Ts <> Td 9.7 - 8.9 2014-03-12 12:51:00
1 1954-11-24 09:00:00 HR (Humedad Relativa) es igual a 100% y Ts <> Td 9.4 - 8.4 2014-03-12 12:51:00
1 1954-11-24 10:00:00 HR (Humedad Relativa) es igual a 100% y Ts <> Td 9.4 - 8.6 2014-03-07 14:30:00
1 1954-11-24 11:00:00 HR (Humedad Relativa) es igual a 100% y Ts <> Td 9.2 - 8.5 2014-03-07 14:30:00
1 1954-11-24 12:00:00 HR (Humedad Relativa) es igual a 100% y Ts <> Td 9.4 - 9.0 2014-03-07 14:30:00
1 1954-11-24 13:00:00 HR (Humedad Relativa) es igual a 100% y Ts <> Td 10.3 - 9.4 2014-03-07 14:30:00
1 1954-11-24 14:00:00 HR (Humedad Relativa) es igual a 100% y Ts <> Td 12.2 - 10.0 2014-03-07 14:30:00
1 1954-11-25 10:00:00 HR (Humedad Relativa) es igual a 100% y Ts <> Td 6.5 - 5.9 2014-03-07 14:49:00
1 1954-11-26 10:00:00 HR (Humedad Relativa) es igual a 100% y Ts <> Td 7.0 - 6.0 2014-03-07 15:12:00
1 1954-11-26 11:00:00 HR (Humedad Relativa) es igual a 100% y Ts <> Td 7.1 - 6.1 2014-03-07 15:12:00
1 1954-11-26 12:00:00 HR (Humedad Relativa) es igual a 100% y Ts <> Td 10.5 - 9.0 2014-03-07 15:12:00
1 1954-11-27 09:00:00 HR (Humedad Relativa) es igual a 100% y Ts <> Td 5.6 - 5.2 2014-03-12 12:52:00
1 1954-11-27 10:00:00 HR (Humedad Relativa) es igual a 100% y Ts <> Td 4.4 - 4.0 2014-03-07 15:23:00
1 1954-11-27 11:00:00 HR (Humedad Relativa) es igual a 100% y Ts <> Td 6.6 - 5.8 2014-03-07 15:23:00
1 1954-11-27 12:00:00 HR (Humedad Relativa) es igual a 100% y Ts <> Td 8.3 - 7.7 2014-03-07 15:23:00
1 1954-11-28 10:00:00 HR (Humedad Relativa) es igual a 100% y Ts <> Td 5.0 - 4.6 2014-03-07 15:31:00
1 1954-11-29 10:00:00 HR (Humedad Relativa) es igual a 100% y Ts <> Td 7.7 - 7.1 2014-03-07 15:46:00
1 1954-11-29 11:00:00 HR (Humedad Relativa) es igual a 100% y Ts <> Td 7.7 - 7.1 2014-03-07 15:46:00
1 1954-11-29 12:00:00 HR (Humedad Relativa) es igual a 100% y Ts <> Td 9.8 - 6.7 2014-03-07 15:46:00
1 1954-11-29 13:00:00 HR (Humedad Relativa) es igual a 100% y Ts <> Td 11.8 - 9.7 2014-03-07 15:47:00
1 1954-11-30 10:00:00 HR (Humedad Relativa) es igual a 100% y Ts <> Td 10.4 - 9.6 2014-03-07 17:51:00
1 1954-11-30 11:00:00 HR (Humedad Relativa) es igual a 100% y Ts <> Td 10.4 - 9.6 2014-03-07 17:51:00
1 1954-11-30 12:00:00 HR (Humedad Relativa) es igual a 100% y Ts <> Td 11.7 - 11.0 2014-03-07 17:51:00
1 1954-11-30 13:00:00 HR (Humedad Relativa) es igual a 100% y Ts <> Td 14.5 - 12.3 2014-03-07 17:51:00
1 1954-12-01 10:00:00 HR (Humedad Relativa) es igual a 100% y Ts <> Td 9.8 - 9.4 2014-03-07 18:02:00
1 1954-12-01 11:00:00 HR (Humedad Relativa) es igual a 100% y Ts <> Td 10.0 - 9.2 2014-03-07 18:01:00
1 1954-12-01 12:00:00 HR (Humedad Relativa) es igual a 100% y Ts <> Td 14.7 - 11.8 2014-03-07 18:01:00
1 1954-12-02 10:00:00 HR (Humedad Relativa) es igual a 100% y Ts <> Td 10.7 - 9.3 2014-03-07 18:11:00
1 1954-12-02 11:00:00 HR (Humedad Relativa) es igual a 100% y Ts <> Td 10.7 - 9.3 2014-03-07 18:11:00
1 1954-12-02 12:00:00 HR (Humedad Relativa) es igual a 100% y Ts <> Td 15.4 - 12.1 2014-03-07 18:11:00
1 1954-12-03 10:00:00 HR (Humedad Relativa) es igual a 100% y Ts <> Td 8.7 - 7.7 2014-03-07 18:22:00
1 1954-12-03 11:00:00 HR (Humedad Relativa) es igual a 100% y Ts <> Td 11.2 - 9.4 2014-03-07 18:22:00
1 1954-12-05 10:00:00 HR (Humedad Relativa) es igual a 100% y Ts <> Td 14.1 - 13.1 2014-03-07 18:40:00
1 1954-12-05 11:00:00 HR (Humedad Relativa) es igual a 100% y Ts <> Td 14.1 - 13.1 2014-03-07 18:40:00
1 1954-12-05 12:00:00 HR (Humedad Relativa) es igual a 100% y Ts <> Td 14.5 - 12.8 2014-03-07 18:40:00
1 1954-12-05 13:00:00 HR (Humedad Relativa) es igual a 100% y Ts <> Td 16.0 - 13.7 2014-03-07 18:40:00
1 1954-12-05 14:00:00 HR (Humedad Relativa) es igual a 100% y Ts <> Td 16.4 - 14.5 2014-03-07 18:40:00
1 1954-12-05 15:00:00 HR (Humedad Relativa) es igual a 100% y Ts <> Td 16.2 - 14.3 2014-03-07 18:40:00
1 1954-12-05 16:00:00 HR (Humedad Relativa) es igual a 100% y Ts <> Td 16.6 - 14.7 2014-03-07 18:40:00
1 1954-12-05 17:00:00 HR (Humedad Relativa) es igual a 100% y Ts <> Td 18.0 - 16.8 2014-03-07 18:40:00
1 1954-12-05 18:00:00 HR (Humedad Relativa) es igual a 100% y Ts <> Td 17.8 - 16.6 2014-03-07 18:40:00
1 1954-12-05 19:00:00 HR (Humedad Relativa) es igual a 100% y Ts <> Td 18.6 - 16.6 2014-03-07 18:41:00
1 1954-12-05 20:00:00 HR (Humedad Relativa) es igual a 100% y Ts <> Td 17.5 - 15.9 2014-03-07 18:41:00
1 1954-12-05 21:00:00 HR (Humedad Relativa) es igual a 100% y Ts <> Td 17.7 - 16.6 2014-03-07 18:41:00
1 1954-12-05 22:00:00 HR (Humedad Relativa) es igual a 100% y Ts <> Td 17.7 - 16.6 2014-03-07 18:41:00
1 1954-12-05 23:00:00 HR (Humedad Relativa) es igual a 100% y Ts <> Td 17.5 - 16.6 2014-03-07 18:41:00
1 1954-12-06 10:00:00 HR (Humedad Relativa) es igual a 100% y Ts <> Td 13.4 - 13.1 2014-03-07 18:54:00
1 1954-12-06 11:00:00 HR (Humedad Relativa) es igual a 100% y Ts <> Td 13.4 - 13.0 2014-03-07 18:54:00
1 1954-12-06 12:00:00 HR (Humedad Relativa) es igual a 100% y Ts <> Td 15.5 - 15.0 2014-03-07 18:54:00
1 1954-12-06 13:00:00 HR (Humedad Relativa) es igual a 100% y Ts <> Td 19.4 - 16.4 2014-03-07 18:55:00
1 1954-12-07 10:00:00 HR (Humedad Relativa) es igual a 100% y Ts <> Td 11.7 - 11.2 2014-03-07 19:21:00
1 1954-12-07 11:00:00 HR (Humedad Relativa) es igual a 100% y Ts <> Td 11.7 - 11.2 2014-03-07 19:21:00
1 1954-12-07 13:00:00 HR (Humedad Relativa) es igual a 100% y Ts <> Td 12.5 - 11.9 2014-03-07 19:21:00
1 1954-12-07 14:00:00 HR (Humedad Relativa) es igual a 100% y Ts <> Td 13.0 - 12.0 2014-03-07 19:21:00
1 1954-12-08 10:00:00 HR (Humedad Relativa) es igual a 100% y Ts <> Td 10.1 - 8.0 2014-03-10 12:26:00
1 1954-12-08 11:00:00 HR (Humedad Relativa) es igual a 100% y Ts <> Td 10.1 - 8.0 2014-03-10 12:26:00
1 1954-12-09 10:00:00 HR (Humedad Relativa) es igual a 100% y Ts <> Td 12.5 - 11.6 2014-03-10 12:57:00
1 1954-12-09 11:00:00 HR (Humedad Relativa) es igual a 100% y Ts <> Td 12.5 - 11.6 2014-03-10 12:57:00
1 1954-12-09 12:00:00 HR (Humedad Relativa) es igual a 100% y Ts <> Td 14.8 - 13.1 2014-03-10 12:58:00
1 1954-12-10 10:00:00 HR (Humedad Relativa) es igual a 100% y Ts <> Td 7.7 - 6.7 2014-03-10 13:12:00
1 1954-12-10 11:00:00 HR (Humedad Relativa) es igual a 100% y Ts <> Td 8.2 - 7.2 2014-03-10 13:12:00
1 1954-12-11 10:00:00 HR (Humedad Relativa) es igual a 100% y Ts <> Td 10.2 - 9.0 2014-03-10 13:24:00
1 1954-12-13 10:00:00 HR (Humedad Relativa) es igual a 100% y Ts <> Td 11.7 - 10.4 2014-03-10 14:32:00
1 1954-12-13 11:00:00 HR (Humedad Relativa) es igual a 100% y Ts <> Td 11.7 - 10.4 2014-03-10 14:32:00
1 1954-12-14 10:00:00 HR (Humedad Relativa) es igual a 100% y Ts <> Td 4.0 - 3.6 2014-03-10 14:47:00
1 1954-12-14 11:00:00 HR (Humedad Relativa) es igual a 100% y Ts <> Td 5.6 - 5.0 2014-03-10 14:47:00
1 1954-12-14 12:00:00 HR (Humedad Relativa) es igual a 100% y Ts <> Td 9.4 - 7.9 2014-03-10 14:47:00
1 1954-12-15 10:00:00 HR (Humedad Relativa) es igual a 100% y Ts <> Td 5.0 - 4.6 2014-03-10 15:06:00
1 1954-12-15 11:00:00 HR (Humedad Relativa) es igual a 100% y Ts <> Td 6.4 - 5.4 2014-03-10 15:06:00
1 1954-12-15 12:00:00 HR (Humedad Relativa) es igual a 100% y Ts <> Td 10.7 - 7.5 2014-03-10 15:06:00
1 1954-12-17 10:00:00 HR (Humedad Relativa) es igual a 100% y Ts <> Td 5.5 - 5.1 2014-03-10 15:28:00
1 1954-12-17 11:00:00 HR (Humedad Relativa) es igual a 100% y Ts <> Td 6.0 - 5.0 2014-03-10 15:28:00
1 1954-12-18 10:00:00 HR (Humedad Relativa) es igual a 100% y Ts <> Td 6.0 - 5.6 2014-03-10 15:44:00
1 1954-12-18 11:00:00 HR (Humedad Relativa) es igual a 100% y Ts <> Td 7.4 - 6.0 2014-03-10 15:44:00
1 1954-12-19 10:00:00 HR (Humedad Relativa) es igual a 100% y Ts <> Td 10.4 - 9.7 2014-03-10 15:53:00
1 1954-12-19 11:00:00 HR (Humedad Relativa) es igual a 100% y Ts <> Td 10.5 - 9.7 2014-03-10 15:53:00
1 1954-12-19 12:00:00 Ts debe ser mayor o igual a Td Ts=11.6 - Td=12.5 2014-03-10 15:53:00
1 1954-12-22 07:00:00 HR (Humedad Relativa) es igual a 100% y Ts <> Td 10.0 - 9.3 2014-03-12 12:55:00
1 1954-12-22 08:00:00 HR (Humedad Relativa) es igual a 100% y Ts <> Td 10.0 - 9.3 2014-03-12 12:55:00
1 1954-12-22 09:00:00 HR (Humedad Relativa) es igual a 100% y Ts <> Td 10.5 - 9.1 2014-03-12 12:55:00
1 1954-12-22 10:00:00 HR (Humedad Relativa) es igual a 100% y Ts <> Td 10.5 - 9.6 2014-03-10 17:40:00
1 1954-12-28 08:00:00 HR (Humedad Relativa) es igual a 100% y Ts <> Td 5.7 - 5.1 2014-03-12 12:59:00
1 1954-12-28 09:00:00 HR (Humedad Relativa) es igual a 100% y Ts <> Td 5.2 - 4.8 2014-03-12 12:59:00
1 1954-12-29 10:00:00 HR (Humedad Relativa) es igual a 100% y Ts <> Td 8.2 - 7.8 2014-03-10 19:24:00
1 1954-12-29 11:00:00 HR (Humedad Relativa) es igual a 100% y Ts <> Td 8.2 - 7.8 2014-03-10 19:24:00
1 1952-04-22 18:00:00 ts > 12.0 y ( (ww >= 68 y ww <= 69) o (ww >= 83 y ww <= 84)) 83 2014-09-11 17:36:00
1 1952-09-04 13:00:00 ts > 3.0 y ( (ww >= 48 y ww <= 49) o (ww >= 56 y ww <= 57) o (ww >=66 y ww <= 67)) 49 2014-09-29 13:47:00
1 1952-10-16 20:00:00 ts > 5.0 y ((ww >= 70 y ww <= 79) || (ww >= 85 y ww <= 88))) 87 2014-10-01 17:37:00
1 1953-02-13 15:00:00 (ts - td > 5.0) y ((ww >= 40 y ww <= 49)) 42 2013-12-12 14:30:00
1 1953-02-13 16:00:00 (ts - td > 5.0) y ((ww >= 40 y ww <= 49)) 40 2013-12-12 14:30:00
1 1953-02-13 17:00:00 (ts - td > 5.0) y ((ww >= 40 y ww <= 49)) 40 2013-12-12 14:30:00
1 1953-09-13 20:00:00 ts > 5.0 y ((ww >= 70 y ww <= 79) || (ww >= 85 y ww <= 88))) 88 2014-02-04 13:51:00
1 1954-05-07 21:00:00 ts > 5.0 y ((ww >= 70 y ww <= 79) || (ww >= 85 y ww <= 88))) 87 2014-01-24 19:02:00
1 1953-10-24 12:00:00 rrr = s/p y WW = 5 w1=5 w2=1 0.0 2014-02-06 20:17:00
Errores del Nivel 943
Nivel Fecha del Dato Descripción Información Error Fecha Ingreso
2 1952-06-23 16:00:00 Variación horaria de Intensidad del viento fuera de rango (1 hora Antes) 47 - 4 2014-09-22 15:49:00
2 1952-06-23 17:00:00 Variación horaria de Intensidad del viento fuera de rango (1 hora Antes) 4 - 47 2014-09-22 15:49:00
2 1952-07-28 12:00:00 Variación horaria de Intensidad del viento fuera de rango (1 hora Antes) 98 - 8 2014-09-24 15:22:00
2 1952-07-28 13:00:00 Variación horaria de Intensidad del viento fuera de rango (1 hora Antes) 8 - 98 2014-09-24 15:22:00
2 1952-12-11 12:00:00 Variación horaria de Intensidad del viento fuera de rango (1 hora Antes) 74 - 2 2014-10-06 15:27:00
2 1952-12-11 13:00:00 Variación horaria de Intensidad del viento fuera de rango (1 hora Antes) 4 - 74 2014-10-06 15:27:00
2 1953-01-09 20:00:00 Variación horaria de Intensidad del viento fuera de rango (1 hora Antes) 5 - 40 2013-12-10 13:39:00
2 1953-09-21 18:00:00 Variación horaria de Intensidad del viento fuera de rango (1 hora Antes) 8 - 40 2014-02-04 19:03:00
2 1952-01-14 00:00:00 Temperatura 26.0 del 13-01-1952 16:00, Mayor que la Máxima 23.0 14-01-1952 00:00 26.0 -- 23.0 2014-09-22 17:50:00
2 1952-01-15 00:00:00 Temperatura 27.0 del 14-01-1952 15:00, Mayor que la Máxima 26.1 15-01-1952 00:00 27.0 -- 26.1 2014-09-22 17:50:00
2 1952-01-18 00:00:00 Temperatura 30.0 del 17-01-1952 16:00, Mayor que la Máxima 27.0 18-01-1952 00:00 30.0 -- 27.0 2014-09-22 17:50:00
2 1952-01-21 00:00:00 Temperatura 29.8 del 20-01-1952 15:00, Mayor que la Máxima 29.0 21-01-1952 00:00 29.8 -- 29.0 2014-09-22 17:50:00
2 1952-01-23 00:00:00 Temperatura 34.4 del 22-01-1952 16:00, Mayor que la Máxima 30.0 23-01-1952 00:00 34.4 -- 30.0 2014-09-22 17:50:00
2 1952-01-26 00:00:00 Temperatura 26.0 del 25-01-1952 16:00, Mayor que la Máxima 24.0 26-01-1952 00:00 26.0 -- 24.0 2014-09-22 17:50:00
2 1952-01-27 00:00:00 Temperatura 30.0 del 26-01-1952 15:00, Mayor que la Máxima 26.0 27-01-1952 00:00 30.0 -- 26.0 2014-09-22 17:50:00
2 1952-04-05 00:00:00 Temperatura 17.4 del 04-04-1952 21:00, Mayor que la Máxima 17.0 05-04-1952 00:00 17.4 -- 17.0 2014-09-22 18:17:00
2 1952-04-08 00:00:00 Temperatura 18.1 del 07-04-1952 20:00, Mayor que la Máxima 18.0 08-04-1952 00:00 18.1 -- 18.0 2014-09-22 18:17:00
2 1952-04-12 00:00:00 Temperatura 23.4 del 11-04-1952 21:00, Mayor que la Máxima 23.0 12-04-1952 00:00 23.4 -- 23.0 2014-09-22 18:17:00
2 1952-04-13 00:00:00 Temperatura 18.1 del 12-04-1952 18:00, Mayor que la Máxima 18.0 13-04-1952 00:00 18.1 -- 18.0 2014-09-22 18:17:00
2 1952-04-18 00:00:00 Temperatura 21.2 del 17-04-1952 20:00, Mayor que la Máxima 21.0 18-04-1952 00:00 21.2 -- 21.0 2014-09-22 18:17:00
2 1952-04-19 00:00:00 Temperatura 20.4 del 18-04-1952 18:00, Mayor que la Máxima 20.0 19-04-1952 00:00 20.4 -- 20.0 2014-09-22 18:17:00
2 1952-04-20 00:00:00 Temperatura 15.1 del 19-04-1952 20:00, Mayor que la Máxima 15.0 20-04-1952 00:00 15.1 -- 15.0 2014-09-22 18:17:00
2 1952-04-26 00:00:00 Temperatura 16.2 del 25-04-1952 19:00, Mayor que la Máxima 16.0 26-04-1952 00:00 16.2 -- 16.0 2014-09-22 18:17:00
2 1952-06-01 00:00:00 Temperatura 12.1 del 31-05-1952 18:00, Mayor que la Máxima 12.0 01-06-1952 00:00 12.1 -- 12.0 2014-09-22 19:06:00
2 1952-07-02 00:00:00 Temperatura 10.2 del 01-07-1952 19:00, Mayor que la Máxima 10.0 02-07-1952 00:00 10.2 -- 10.0 2014-10-06 19:39:00
2 1952-07-07 00:00:00 Temperatura 13.3 del 06-07-1952 20:00, Mayor que la Máxima 13.2 07-07-1952 00:00 13.3 -- 13.2 2014-10-06 19:39:00
2 1952-07-08 00:00:00 Temperatura 14.3 del 07-07-1952 18:00, Mayor que la Máxima 14.2 08-07-1952 00:00 14.3 -- 14.2 2014-10-06 19:39:00
2 1952-07-24 00:00:00 Temperatura 10.1 del 23-07-1952 18:00, Mayor que la Máxima 10.0 24-07-1952 00:00 10.1 -- 10.0 2014-10-06 19:39:00
2 1952-07-25 00:00:00 Temperatura 9.2 del 24-07-1952 20:00, Mayor que la Máxima 9.1 25-07-1952 00:00 9.2 -- 9.1 2014-10-06 19:39:00
2 1952-08-03 00:00:00 Temperatura 8.2 del 02-08-1952 18:00, Mayor que la Máxima 8.0 03-08-1952 00:00 8.2 -- 8.0 2014-10-06 19:47:00
2 1952-08-04 00:00:00 Temperatura 8.2 del 03-08-1952 20:00, Mayor que la Máxima 8.1 04-08-1952 00:00 8.2 -- 8.1 2014-10-06 19:47:00
2 1952-08-28 00:00:00 Temperatura 11.1 del 27-08-1952 19:00, Mayor que la Máxima 10.5 28-08-1952 00:00 11.1 -- 10.5 2014-10-06 19:47:00
2 1952-09-02 00:00:00 Temperatura 16.4 del 01-09-1952 20:00, Mayor que la Máxima 16.3 02-09-1952 00:00 16.4 -- 16.3 2014-10-06 19:57:00
2 1952-09-08 00:00:00 Temperatura 13.1 del 07-09-1952 20:00, Mayor que la Máxima 13.0 08-09-1952 00:00 13.1 -- 13.0 2014-10-06 19:57:00
2 1952-09-10 00:00:00 Temperatura 18.7 del 09-09-1952 20:00, Mayor que la Máxima 18.4 10-09-1952 00:00 18.7 -- 18.4 2014-10-06 19:57:00
2 1952-09-11 00:00:00 Temperatura 11.1 del 10-09-1952 18:00, Mayor que la Máxima 11.0 11-09-1952 00:00 11.1 -- 11.0 2014-10-06 19:57:00
2 1952-09-28 00:00:00 Temperatura 16.7 del 27-09-1952 20:00, Mayor que la Máxima 16.0 28-09-1952 00:00 16.7 -- 16.0 2014-10-06 19:57:00
2 1952-10-06 00:00:00 Temperatura 14.0 del 05-10-1952 16:00, Mayor que la Máxima 13.8 06-10-1952 00:00 14.0 -- 13.8 2014-10-06 20:11:00
2 1952-10-11 00:00:00 Temperatura 14.4 del 10-10-1952 20:00, Mayor que la Máxima 13.3 11-10-1952 00:00 14.4 -- 13.3 2014-10-06 20:11:00
2 1952-11-07 00:00:00 Temperatura 21.3 del 06-11-1952 20:00, Mayor que la Máxima 21.0 07-11-1952 00:00 21.3 -- 21.0 2014-10-06 20:27:00
2 1952-11-12 00:00:00 Temperatura 21.7 del 11-11-1952 17:00, Mayor que la Máxima 21.0 12-11-1952 00:00 21.7 -- 21.0 2014-10-06 20:27:00
2 1952-11-14 00:00:00 Temperatura 16.0 del 13-11-1952 20:00, Mayor que la Máxima 15.8 14-11-1952 00:00 16.0 -- 15.8 2014-10-06 20:27:00
2 1952-11-16 00:00:00 Temperatura 16.4 del 15-11-1952 19:00, Mayor que la Máxima 16.2 16-11-1952 00:00 16.4 -- 16.2 2014-10-06 20:27:00
2 1952-12-08 00:00:00 Temperatura 26.0 del 07-12-1952 20:00, Mayor que la Máxima 25.8 08-12-1952 00:00 26.0 -- 25.8 2014-10-07 12:26:00
2 1952-12-11 00:00:00 Temperatura 21.3 del 10-12-1952 20:00, Mayor que la Máxima 21.2 11-12-1952 00:00 21.3 -- 21.2 2014-10-07 12:26:00
2 1952-12-22 00:00:00 Temperatura 26.1 del 21-12-1952 18:00, Mayor que la Máxima 25.6 22-12-1952 00:00 26.1 -- 25.6 2014-10-07 12:26:00
2 1952-12-28 00:00:00 Temperatura 26.4 del 27-12-1952 20:00, Mayor que la Máxima 26.2 28-12-1952 00:00 26.4 -- 26.2 2014-10-07 12:26:00
2 1952-12-29 00:00:00 Temperatura 24.1 del 28-12-1952 21:00, Mayor que la Máxima 24.0 29-12-1952 00:00 24.1 -- 24.0 2014-10-07 12:26:00
2 1952-12-31 00:00:00 Temperatura 25.2 del 30-12-1952 18:00, Mayor que la Máxima 25.0 31-12-1952 00:00 25.2 -- 25.0 2014-10-07 12:26:00
2 1953-01-09 00:00:00 Temperatura 25.1 del 08-01-1953 21:00, Mayor que la Máxima 25.0 09-01-1953 00:00 25.1 -- 25.0 2013-12-24 14:56:00
2 1953-01-15 00:00:00 Temperatura 31.4 del 14-01-1953 19:00, Mayor que la Máxima 31.0 15-01-1953 00:00 31.4 -- 31.0 2013-12-24 14:56:00
2 1953-01-20 00:00:00 Temperatura 20.0 del 19-01-1953 17:00, Mayor que la Máxima 19.2 20-01-1953 00:00 20.0 -- 19.2 2013-12-24 14:56:00
2 1953-02-03 00:00:00 Temperatura 28.4 del 02-02-1953 20:00, Mayor que la Máxima 28.2 03-02-1953 00:00 28.4 -- 28.2 2013-12-26 12:32:00
2 1953-02-04 00:00:00 Temperatura 27.8 del 03-02-1953 19:00, Mayor que la Máxima 27.0 04-02-1953 00:00 27.8 -- 27.0 2013-12-26 12:32:00
2 1953-02-08 00:00:00 Temperatura 21.4 del 07-02-1953 20:00, Mayor que la Máxima 21.2 08-02-1953 00:00 21.4 -- 21.2 2013-12-26 12:33:00
2 1953-02-19 00:00:00 Temperatura 20.0 del 18-02-1953 17:00, Mayor que la Máxima 18.2 19-02-1953 00:00 20.0 -- 18.2 2013-12-26 12:33:00
2 1953-02-26 00:00:00 Temperatura 27.7 del 25-02-1953 20:00, Mayor que la Máxima 27.3 26-02-1953 00:00 27.7 -- 27.3 2013-12-26 12:33:00
2 1953-03-16 00:00:00 Temperatura 22.0 del 15-03-1953 19:00, Mayor que la Máxima 21.2 16-03-1953 00:00 22.0 -- 21.2 2013-12-26 13:39:00
2 1953-03-18 00:00:00 Temperatura 22.0 del 17-03-1953 18:00, Mayor que la Máxima 20.0 18-03-1953 00:00 22.0 -- 20.0 2013-12-26 13:39:00
2 1953-03-20 00:00:00 Temperatura 23.3 del 19-03-1953 20:00, Mayor que la Máxima 23.0 20-03-1953 00:00 23.3 -- 23.0 2013-12-26 13:39:00
2 1953-03-24 00:00:00 Temperatura 24.8 del 23-03-1953 21:00, Mayor que la Máxima 24.2 24-03-1953 00:00 24.8 -- 24.2 2013-12-26 13:39:00
2 1953-03-30 00:00:00 Temperatura 20.6 del 29-03-1953 21:00, Mayor que la Máxima 20.0 30-03-1953 00:00 20.6 -- 20.0 2013-12-26 13:39:00
2 1953-04-24 00:00:00 Temperatura 21.4 del 23-04-1953 21:00, Mayor que la Máxima 20.8 24-04-1953 00:00 21.4 -- 20.8 2013-12-26 13:59:00
2 1953-05-06 00:00:00 Temperatura 18.8 del 05-05-1953 20:00, Mayor que la Máxima 17.8 06-05-1953 00:00 18.8 -- 17.8 2014-01-28 15:00:00
2 1953-05-10 00:00:00 Temperatura 17.4 del 09-05-1953 18:00, Mayor que la Máxima 17.1 10-05-1953 00:00 17.4 -- 17.1 2014-01-28 15:00:00
2 1953-05-11 00:00:00 Temperatura 16.1 del 10-05-1953 17:00, Mayor que la Máxima 15.2 11-05-1953 00:00 16.1 -- 15.2 2014-01-28 15:00:00
2 1953-05-14 00:00:00 Temperatura 14.1 del 13-05-1953 14:00, Mayor que la Máxima 13.4 14-05-1953 00:00 14.1 -- 13.4 2014-01-28 15:01:00
2 1953-05-15 00:00:00 Temperatura 17.4 del 14-05-1953 16:00, Mayor que la Máxima 16.4 15-05-1953 00:00 17.4 -- 16.4 2014-01-28 15:01:00
2 1953-05-20 00:00:00 Temperatura 14.8 del 19-05-1953 18:00, Mayor que la Máxima 14.2 20-05-1953 00:00 14.8 -- 14.2 2014-01-28 15:01:00
2 1953-05-30 00:00:00 Temperatura 11.1 del 29-05-1953 17:00, Mayor que la Máxima 10.8 30-05-1953 00:00 11.1 -- 10.8 2014-01-28 15:01:00
2 1953-06-15 00:00:00 Temperatura 11.2 del 14-06-1953 20:00, Mayor que la Máxima 10.9 15-06-1953 00:00 11.2 -- 10.9 2014-01-28 18:24:00
2 1953-06-16 00:00:00 Temperatura 10.9 del 15-06-1953 18:00, Mayor que la Máxima 10.8 16-06-1953 00:00 10.9 -- 10.8 2014-01-28 18:24:00
2 1953-06-23 00:00:00 Temperatura 11.3 del 22-06-1953 16:00, Mayor que la Máxima 11.1 23-06-1953 00:00 11.3 -- 11.1 2014-01-28 18:25:00
2 1953-07-01 00:00:00 Temperatura 10.0 del 30-06-1953 17:00, Mayor que la Máxima 9.2 01-07-1953 00:00 10.0 -- 9.2 2014-01-28 18:25:00
2 1953-07-17 00:00:00 Temperatura 9.2 del 16-07-1953 18:00, Mayor que la Máxima 8.4 17-07-1953 00:00 9.2 -- 8.4 2014-02-12 20:22:00
2 1953-08-13 00:00:00 Temperatura 14.9 del 12-08-1953 21:00, Mayor que la Máxima 1.5 13-08-1953 00:00 14.9 -- 1.5 2014-02-13 12:37:00
2 1953-08-26 00:00:00 Temperatura 9.8 del 25-08-1953 17:00, Mayor que la Máxima 9.7 26-08-1953 00:00 9.8 -- 9.7 2014-02-13 12:40:00
2 1953-09-22 00:00:00 Temperatura 10.0 del 21-09-1953 19:00, Mayor que la Máxima 9.6 22-09-1953 00:00 10.0 -- 9.6 2014-02-13 13:39:00
2 1953-09-28 00:00:00 Temperatura 12.7 del 27-09-1953 19:00, Mayor que la Máxima 12.6 28-09-1953 00:00 12.7 -- 12.6 2014-02-13 13:40:00
2 1953-10-16 00:00:00 Temperatura 17.5 del 15-10-1953 18:00, Mayor que la Máxima 14.8 16-10-1953 00:00 17.5 -- 14.8 2014-02-13 14:10:00
2 1953-11-17 00:00:00 Temperatura 18.8 del 16-11-1953 19:00, Mayor que la Máxima 18.6 17-11-1953 00:00 18.8 -- 18.6 2014-02-13 14:56:00
2 1954-02-23 00:00:00 Temperatura 26.6 del 22-02-1954 20:00, Mayor que la Máxima 26.2 23-02-1954 00:00 26.6 -- 26.2 2014-03-11 13:59:00
2 1954-06-25 00:00:00 Temperatura 11.3 del 24-06-1954 16:00, Mayor que la Máxima 11.0 25-06-1954 00:00 11.3 -- 11.0 2014-03-11 15:48:00
2 1954-07-19 00:00:00 Temperatura 9.0 del 18-07-1954 20:00, Mayor que la Máxima 8.8 19-07-1954 00:00 9.0 -- 8.8 2014-03-11 17:26:00
2 1954-08-22 00:00:00 Temperatura 12.2 del 21-08-1954 16:00, Mayor que la Máxima 12.1 22-08-1954 00:00 12.2 -- 12.1 2014-03-11 17:54:00
2 1954-08-25 00:00:00 Temperatura 15.2 del 24-08-1954 19:00, Mayor que la Máxima 15.1 25-08-1954 00:00 15.2 -- 15.1 2014-03-11 17:55:00
2 1954-12-13 00:00:00 Temperatura 16.5 del 12-12-1954 19:00, Mayor que la Máxima 16.4 13-12-1954 00:00 16.5 -- 16.4 2014-03-11 19:40:00
2 1952-01-17 12:00:00 Temperatura 7.0 del 17-01-1952 07:00, Menor que la Mínima 9.0 17-01-1952 12:00 7.0 -- 9.0 2014-09-05 16:49:00
2 1952-01-25 12:00:00 Temperatura 3.5 del 25-01-1952 06:00, Menor que la Mínima 5.0 25-01-1952 12:00 3.5 -- 5.0 2014-09-05 20:02:00
2 1952-04-06 12:00:00 Temperatura 8.0 del 06-04-1952 10:00, Menor que la Mínima 9.0 06-04-1952 12:00 8.0 -- 9.0 2014-09-11 12:28:00
2 1952-06-01 12:00:00 Temperatura 2.0 del 01-06-1952 12:00, Menor que la Mínima 2.1 01-06-1952 12:00 2.0 -- 2.1 2014-09-15 19:18:00
2 1952-06-05 12:00:00 Temperatura 5.0 del 05-06-1952 12:00, Menor que la Mínima 5.1 05-06-1952 12:00 5.0 -- 5.1 2014-09-17 13:04:00
2 1952-06-13 12:00:00 Temperatura 2.0 del 13-06-1952 12:00, Menor que la Mínima 2.1 13-06-1952 12:00 2.0 -- 2.1 2014-09-17 14:32:00
2 1952-06-19 12:00:00 Temperatura 3.0 del 19-06-1952 10:00, Menor que la Mínima 3.1 19-06-1952 12:00 3.0 -- 3.1 2014-09-22 14:08:00
2 1952-07-07 12:00:00 Temperatura 8.1 del 07-07-1952 11:00, Menor que la Mínima 8.4 07-07-1952 12:00 8.1 -- 8.4 2014-09-23 15:20:00
2 1952-07-17 12:00:00 Temperatura -1.1 del 17-07-1952 12:00, Menor que la Mínima -1.0 17-07-1952 12:00 -1.1 -- -1.0 2014-09-23 19:09:00
2 1952-07-18 12:00:00 Temperatura 3.0 del 18-07-1952 10:00, Menor que la Mínima 10.0 18-07-1952 12:00 3.0 -- 10.0 2014-09-23 19:15:00
2 1952-07-24 12:00:00 Temperatura 3.1 del 24-07-1952 12:00, Menor que la Mínima 3.2 24-07-1952 12:00 3.1 -- 3.2 2014-09-24 13:20:00
2 1952-07-25 12:00:00 Temperatura 3.2 del 25-07-1952 12:00, Menor que la Mínima 12.0 25-07-1952 12:00 3.2 -- 12.0 2014-09-24 13:41:00
2 1952-08-03 12:00:00 Temperatura 5.0 del 03-08-1952 10:00, Menor que la Mínima 5.2 03-08-1952 12:00 5.0 -- 5.2 2014-09-24 18:11:00
2 1952-08-04 12:00:00 Temperatura 6.1 del 04-08-1952 10:00, Menor que la Mínima 6.4 04-08-1952 12:00 6.1 -- 6.4 2014-09-24 18:19:00
2 1952-08-18 12:00:00 Temperatura 2.0 del 18-08-1952 12:00, Menor que la Mínima 2.1 18-08-1952 12:00 2.0 -- 2.1 2014-09-25 13:39:00
2 1952-08-27 12:00:00 Temperatura 4.0 del 27-08-1952 10:00, Menor que la Mínima 4.1 27-08-1952 12:00 4.0 -- 4.1 2014-09-25 18:18:00
2 1952-09-18 12:00:00 Temperatura 5.0 del 18-09-1952 12:00, Menor que la Mínima 5.1 18-09-1952 12:00 5.0 -- 5.1 2014-09-29 19:48:00
2 1952-09-21 12:00:00 Temperatura 3.0 del 21-09-1952 10:00, Menor que la Mínima 3.1 21-09-1952 12:00 3.0 -- 3.1 2014-09-29 20:09:00
2 1952-10-17 12:00:00 Temperatura 7.0 del 17-10-1952 10:00, Menor que la Mínima 7.1 17-10-1952 12:00 7.0 -- 7.1 2014-10-01 17:42:00
2 1952-11-04 12:00:00 Temperatura 3.0 del 04-11-1952 10:00, Menor que la Mínima 3.1 04-11-1952 12:00 3.0 -- 3.1 2014-10-01 19:55:00
2 1952-11-11 12:00:00 Temperatura 5.0 del 11-11-1952 10:00, Menor que la Mínima 7.2 11-11-1952 12:00 5.0 -- 7.2 2014-10-02 15:14:00
2 1952-11-13 12:00:00 Temperatura 7.0 del 13-11-1952 10:00, Menor que la Mínima 7.4 13-11-1952 12:00 7.0 -- 7.4 2014-10-02 15:28:00
2 1952-11-24 12:00:00 Temperatura 8.0 del 24-11-1952 07:00, Menor que la Mínima 8.2 24-11-1952 12:00 8.0 -- 8.2 2014-10-02 19:46:00
2 1952-12-23 12:00:00 Temperatura 9.0 del 23-12-1952 10:00, Menor que la Mínima 9.1 23-12-1952 12:00 9.0 -- 9.1 2014-10-06 18:17:00
2 1953-01-07 12:00:00 Temperatura 8.0 del 07-01-1953 10:00, Menor que la Mínima 8.1 07-01-1953 12:00 8.0 -- 8.1 2013-12-09 18:31:00
2 1953-01-18 12:00:00 Temperatura 7.2 del 18-01-1953 09:00, Menor que la Mínima 10.1 18-01-1953 12:00 7.2 -- 10.1 2013-12-10 18:34:00
2 1953-02-10 12:00:00 Temperatura 7.5 del 10-02-1953 09:00, Menor que la Mínima 10.1 10-02-1953 12:00 7.5 -- 10.1 2013-12-11 20:31:00
2 1953-02-13 12:00:00 Temperatura 12.0 del 13-02-1953 10:00, Menor que la Mínima 18.0 13-02-1953 12:00 12.0 -- 18.0 2013-12-12 14:30:00
2 1953-03-20 12:00:00 Temperatura 13.0 del 20-03-1953 10:00, Menor que la Mínima 13.1 20-03-1953 12:00 13.0 -- 13.1 2013-12-17 19:55:00
2 1953-03-27 12:00:00 Temperatura 11.6 del 27-03-1953 10:00, Menor que la Mínima 11.7 27-03-1953 12:00 11.6 -- 11.7 2013-12-19 12:45:00
2 1953-04-27 12:00:00 Temperatura 13.0 del 27-04-1953 10:00, Menor que la Mínima 13.2 27-04-1953 12:00 13.0 -- 13.2 2013-12-27 14:36:00
2 1953-06-30 12:00:00 Temperatura 7.1 del 30-06-1953 10:00, Menor que la Mínima 7.2 30-06-1953 12:00 7.1 -- 7.2 2014-01-28 14:29:00
2 1953-07-29 12:00:00 Temperatura -3.7 del 29-07-1953 12:00, Menor que la Mínima 3.7 29-07-1953 12:00 -3.7 -- 3.7 2014-01-30 17:41:00
2 1953-10-25 12:00:00 Temperatura 5.4 del 25-10-1953 10:00, Menor que la Mínima 6.0 25-10-1953 12:00 5.4 -- 6.0 2014-02-07 12:51:00
2 1953-11-24 12:00:00 Temperatura 3.7 del 24-11-1953 10:00, Menor que la Mínima 4.0 24-11-1953 12:00 3.7 -- 4.0 2014-02-11 12:42:00
2 1954-02-11 12:00:00 Temperatura 9.7 del 11-02-1954 11:00, Menor que la Mínima 10.1 11-02-1954 12:00 9.7 -- 10.1 2014-01-21 18:51:00
2 1954-03-12 12:00:00 Temperatura 11.5 del 12-03-1954 11:00, Menor que la Mínima 11.6 12-03-1954 12:00 11.5 -- 11.6 2014-01-22 18:30:00
2 1954-08-30 12:00:00 Temperatura 2.2 del 30-08-1954 11:00, Menor que la Mínima 2.5 30-08-1954 12:00 2.2 -- 2.5 2014-02-28 14:22:00
2 1954-09-15 12:00:00 Temperatura 4.7 del 15-09-1954 10:00, Menor que la Mínima 5.4 15-09-1954 12:00 4.7 -- 5.4 2014-03-03 14:47:00
2 1954-11-16 12:00:00 Temperatura 3.2 del 16-11-1954 10:00, Menor que la Mínima 3.5 16-11-1954 12:00 3.2 -- 3.5 2014-03-06 19:05:00
2 1954-11-21 12:00:00 Temperatura 7.5 del 21-11-1954 10:00, Menor que la Mínima 7.7 21-11-1954 12:00 7.5 -- 7.7 2014-03-07 13:37:00
2 1954-11-22 12:00:00 Temperatura 7.0 del 22-11-1954 10:00, Menor que la Mínima 7.4 22-11-1954 12:00 7.0 -- 7.4 2014-03-07 13:46:00
2 1954-11-25 12:00:00 Temperatura 6.5 del 25-11-1954 10:00, Menor que la Mínima 6.9 25-11-1954 12:00 6.5 -- 6.9 2014-03-07 14:49:00
Errores del Nivel 130
Informe generado el 05-03-2024 10:23
Requerimiento: RE6001